<?xml version="1.0" encoding="UTF-8" standalone="no" ?>
<gpx xmlns="http://www.topografix.com/GPX/1/1" xmlns:xsi="http://www.w3.org/2001/XMLSchema-instance" xsi:schemaLocation="http://www.topografix.com/GPX/1/1 http://www.topografix.com/GPX/1/1/gpx.xsd" version="1.1" creator="VisuGPX - https://www.visugpx.com">
  <metadata>
    <name>Col-de Portet</name>
  </metadata>
  <trk>
    <name><![CDATA[Col-de Portet]]></name>
    <trkseg>
      <trkpt lat="42.90551" lon="0.35906">
        <ele>710.058011</ele>
        <time>2021-08-07T16:50:01.885Z</time>
      </trkpt>
      <trkpt lat="42.90569" lon="0.35885">
        <ele>710.058011</ele>
        <time>2021-08-07T16:50:18.646Z</time>
      </trkpt>
      <trkpt lat="42.9058" lon="0.3588">
        <ele>710.058011</ele>
        <time>2021-08-07T16:50:26.195Z</time>
      </trkpt>
      <trkpt lat="42.90576" lon="0.35876">
        <ele>710.058011</ele>
        <time>2021-08-07T16:50:29.165Z</time>
      </trkpt>
      <trkpt lat="42.90568" lon="0.35859">
        <ele>710.058011</ele>
        <time>2021-08-07T16:50:39.569Z</time>
      </trkpt>
      <trkpt lat="42.90559" lon="0.35839">
        <ele>710.058011</ele>
        <time>2021-08-07T16:50:51.735Z</time>
      </trkpt>
      <trkpt lat="42.90532" lon="0.35863">
        <ele>710.324517</ele>
        <time>2021-08-07T16:51:00.372Z</time>
      </trkpt>
      <trkpt lat="42.90513" lon="0.35883">
        <ele>710.788777</ele>
        <time>2021-08-07T16:51:07.209Z</time>
      </trkpt>
      <trkpt lat="42.90499" lon="0.35896">
        <ele>711.118597</ele>
        <time>2021-08-07T16:51:11.889Z</time>
      </trkpt>
      <trkpt lat="42.90492" lon="0.3588">
        <ele>711.389797</ele>
        <time>2021-08-07T16:51:16.175Z</time>
      </trkpt>
      <trkpt lat="42.90485" lon="0.35861">
        <ele>711.689711</ele>
        <time>2021-08-07T16:51:20.878Z</time>
      </trkpt>
      <trkpt lat="42.90483" lon="0.35859">
        <ele>711.735031</ele>
        <time>2021-08-07T16:51:21.586Z</time>
      </trkpt>
      <trkpt lat="42.9048" lon="0.3586">
        <ele>711.791503</ele>
        <time>2021-08-07T16:51:22.508Z</time>
      </trkpt>
      <trkpt lat="42.90469" lon="0.35862">
        <ele>712.004369</ele>
        <time>2021-08-07T16:51:25.888Z</time>
      </trkpt>
      <trkpt lat="42.90461" lon="0.35862">
        <ele>712.160234</ele>
        <time>2021-08-07T16:51:28.703Z</time>
      </trkpt>
      <trkpt lat="42.9044" lon="0.35838">
        <ele>712.697629</ele>
        <time>2021-08-07T16:51:37.648Z</time>
      </trkpt>
      <trkpt lat="42.90435" lon="0.3583">
        <ele>712.838637</ele>
        <time>2021-08-07T16:51:40.099Z</time>
      </trkpt>
      <trkpt lat="42.90391" lon="0.35829">
        <ele>713.729098</ele>
        <time>2021-08-07T16:51:54.388Z</time>
      </trkpt>
      <trkpt lat="42.90343" lon="0.35826">
        <ele>714.869637</ele>
        <time>2021-08-07T16:52:10.206Z</time>
      </trkpt>
      <trkpt lat="42.90294" lon="0.35822">
        <ele>716.023619</ele>
        <time>2021-08-07T16:52:26.081Z</time>
      </trkpt>
      <trkpt lat="42.90285" lon="0.35821">
        <ele>716.259067</ele>
        <time>2021-08-07T16:52:29.407Z</time>
      </trkpt>
      <trkpt lat="42.90274" lon="0.35822">
        <ele>716.499255</ele>
        <time>2021-08-07T16:52:32.499Z</time>
      </trkpt>
      <trkpt lat="42.90259" lon="0.35821">
        <ele>716.874429</ele>
        <time>2021-08-07T16:52:37.327Z</time>
      </trkpt>
      <trkpt lat="42.90254" lon="0.35821">
        <ele>716.995708</ele>
        <time>2021-08-07T16:52:39.145Z</time>
      </trkpt>
      <trkpt lat="42.90242" lon="0.35817">
        <ele>717.279754</ele>
        <time>2021-08-07T16:52:42.680Z</time>
      </trkpt>
      <trkpt lat="42.90161" lon="0.35789">
        <ele>718.59456</ele>
        <time>2021-08-07T16:53:07.270Z</time>
      </trkpt>
      <trkpt lat="42.90061" lon="0.35755">
        <ele>719.942551</ele>
        <time>2021-08-07T16:53:34.675Z</time>
      </trkpt>
      <trkpt lat="42.89985" lon="0.35729">
        <ele>720.690955</ele>
        <time>2021-08-07T16:53:54.274Z</time>
      </trkpt>
      <trkpt lat="42.89965" lon="0.35722">
        <ele>720.874617</ele>
        <time>2021-08-07T16:53:59.538Z</time>
      </trkpt>
      <trkpt lat="42.89841" lon="0.35674">
        <ele>722.14741</ele>
        <time>2021-08-07T16:54:32.917Z</time>
      </trkpt>
      <trkpt lat="42.89821" lon="0.35666">
        <ele>722.420676</ele>
        <time>2021-08-07T16:54:38.465Z</time>
      </trkpt>
      <trkpt lat="42.89709" lon="0.35619">
        <ele>723.958141</ele>
        <time>2021-08-07T16:55:11.291Z</time>
      </trkpt>
      <trkpt lat="42.89623" lon="0.35556">
        <ele>725.555804</ele>
        <time>2021-08-07T16:55:39.567Z</time>
      </trkpt>
      <trkpt lat="42.89582" lon="0.35536">
        <ele>726.262581</ele>
        <time>2021-08-07T16:55:52.460Z</time>
      </trkpt>
      <trkpt lat="42.89567" lon="0.35527">
        <ele>726.535189</ele>
        <time>2021-08-07T16:55:57.871Z</time>
      </trkpt>
      <trkpt lat="42.8956" lon="0.35517">
        <ele>726.701617</ele>
        <time>2021-08-07T16:56:00.234Z</time>
      </trkpt>
      <trkpt lat="42.89555" lon="0.35509">
        <ele>726.839703</ele>
        <time>2021-08-07T16:56:02.685Z</time>
      </trkpt>
      <trkpt lat="42.89552" lon="0.355">
        <ele>726.956864</ele>
        <time>2021-08-07T16:56:04.746Z</time>
      </trkpt>
      <trkpt lat="42.89553" lon="0.35494">
        <ele>727.030632</ele>
        <time>2021-08-07T16:56:05.954Z</time>
      </trkpt>
      <trkpt lat="42.89552" lon="0.35485">
        <ele>727.054761</ele>
        <time>2021-08-07T16:56:08.265Z</time>
      </trkpt>
      <trkpt lat="42.8955" lon="0.3548">
        <ele>727.06009</ele>
        <time>2021-08-07T16:56:09.235Z</time>
      </trkpt>
      <trkpt lat="42.89545" lon="0.35473">
        <ele>727.069806</ele>
        <time>2021-08-07T16:56:10.700Z</time>
      </trkpt>
      <trkpt lat="42.89544" lon="0.35471">
        <ele>727.072665</ele>
        <time>2021-08-07T16:56:11.566Z</time>
      </trkpt>
      <trkpt lat="42.89528" lon="0.35469">
        <ele>727.094441</ele>
        <time>2021-08-07T16:56:15.701Z</time>
      </trkpt>
      <trkpt lat="42.89525" lon="0.35471">
        <ele>727.098021</ele>
        <time>2021-08-07T16:56:16.740Z</time>
      </trkpt>
      <trkpt lat="42.89517" lon="0.35469">
        <ele>727.109789</ele>
        <time>2021-08-07T16:56:18.966Z</time>
      </trkpt>
      <trkpt lat="42.89505" lon="0.35463">
        <ele>727.126391</ele>
        <time>2021-08-07T16:56:21.576Z</time>
      </trkpt>
      <trkpt lat="42.89485" lon="0.35453">
        <ele>727.15556</ele>
        <time>2021-08-07T16:56:26.943Z</time>
      </trkpt>
      <trkpt lat="42.894" lon="0.35388">
        <ele>727.28802</ele>
        <time>2021-08-07T16:56:46.626Z</time>
      </trkpt>
      <trkpt lat="42.89385" lon="0.35379">
        <ele>727.203145</ele>
        <time>2021-08-07T16:56:50.371Z</time>
      </trkpt>
      <trkpt lat="42.89351" lon="0.35355">
        <ele>726.948321</ele>
        <time>2021-08-07T16:56:57.864Z</time>
      </trkpt>
      <trkpt lat="42.89275" lon="0.35316">
        <ele>726.415872</ele>
        <time>2021-08-07T16:57:13.475Z</time>
      </trkpt>
      <trkpt lat="42.8916" lon="0.35279">
        <ele>725.721905</ele>
        <time>2021-08-07T16:57:39.358Z</time>
      </trkpt>
      <trkpt lat="42.89069" lon="0.35263">
        <ele>725.224891</ele>
        <time>2021-08-07T16:57:57.754Z</time>
      </trkpt>
      <trkpt lat="42.89063" lon="0.3525">
        <ele>725.162352</ele>
        <time>2021-08-07T16:57:59.670Z</time>
      </trkpt>
      <trkpt lat="42.89029" lon="0.35192">
        <ele>725.39898</ele>
        <time>2021-08-07T16:58:11.696Z</time>
      </trkpt>
      <trkpt lat="42.89017" lon="0.3517">
        <ele>725.505173</ele>
        <time>2021-08-07T16:58:15.389Z</time>
      </trkpt>
      <trkpt lat="42.89003" lon="0.35142">
        <ele>725.638041</ele>
        <time>2021-08-07T16:58:21.521Z</time>
      </trkpt>
      <trkpt lat="42.88989" lon="0.35122">
        <ele>725.745671</ele>
        <time>2021-08-07T16:58:25.808Z</time>
      </trkpt>
      <trkpt lat="42.88973" lon="0.35107">
        <ele>725.851079</ele>
        <time>2021-08-07T16:58:30.778Z</time>
      </trkpt>
      <trkpt lat="42.8892" lon="0.35068">
        <ele>726.758579</ele>
        <time>2021-08-07T16:58:50.681Z</time>
      </trkpt>
      <trkpt lat="42.88893" lon="0.35046">
        <ele>728.236248</ele>
        <time>2021-08-07T16:59:03.195Z</time>
      </trkpt>
      <trkpt lat="42.88887" lon="0.35041">
        <ele>728.577922</ele>
        <time>2021-08-07T16:59:06.167Z</time>
      </trkpt>
      <trkpt lat="42.88877" lon="0.35033">
        <ele>729.104944</ele>
        <time>2021-08-07T16:59:11.494Z</time>
      </trkpt>
      <trkpt lat="42.88865" lon="0.35027">
        <ele>729.752894</ele>
        <time>2021-08-07T16:59:17.359Z</time>
      </trkpt>
      <trkpt lat="42.88849" lon="0.35021">
        <ele>730.517525</ele>
        <time>2021-08-07T16:59:24.691Z</time>
      </trkpt>
      <trkpt lat="42.88832" lon="0.35015">
        <ele>731.326683</ele>
        <time>2021-08-07T16:59:32.452Z</time>
      </trkpt>
      <trkpt lat="42.88812" lon="0.35015">
        <ele>732.287989</ele>
        <time>2021-08-07T16:59:42.035Z</time>
      </trkpt>
      <trkpt lat="42.88765" lon="0.35007">
        <ele>734.52533</ele>
        <time>2021-08-07T17:00:03.436Z</time>
      </trkpt>
      <trkpt lat="42.88759" lon="0.35006">
        <ele>734.783176</ele>
        <time>2021-08-07T17:00:06.039Z</time>
      </trkpt>
      <trkpt lat="42.88719" lon="0.35005">
        <ele>736.544909</ele>
        <time>2021-08-07T17:00:23.515Z</time>
      </trkpt>
      <trkpt lat="42.88639" lon="0.35012">
        <ele>740.101673</ele>
        <time>2021-08-07T17:00:56.666Z</time>
      </trkpt>
      <trkpt lat="42.88587" lon="0.35042">
        <ele>742.581854</ele>
        <time>2021-08-07T17:01:18.750Z</time>
      </trkpt>
      <trkpt lat="42.88554" lon="0.35052">
        <ele>743.228537</ele>
        <time>2021-08-07T17:01:30.500Z</time>
      </trkpt>
      <trkpt lat="42.88505" lon="0.35069">
        <ele>744.193657</ele>
        <time>2021-08-07T17:01:46.557Z</time>
      </trkpt>
      <trkpt lat="42.88497" lon="0.35076">
        <ele>744.382031</ele>
        <time>2021-08-07T17:01:49.198Z</time>
      </trkpt>
      <trkpt lat="42.88492" lon="0.35079">
        <ele>744.484944</ele>
        <time>2021-08-07T17:01:52.249Z</time>
      </trkpt>
      <trkpt lat="42.88485" lon="0.35076">
        <ele>744.632575</ele>
        <time>2021-08-07T17:01:54.138Z</time>
      </trkpt>
      <trkpt lat="42.88469" lon="0.35064">
        <ele>744.979335</ele>
        <time>2021-08-07T17:01:58.724Z</time>
      </trkpt>
      <trkpt lat="42.88386" lon="0.35045">
        <ele>745.729661</ele>
        <time>2021-08-07T17:02:20.393Z</time>
      </trkpt>
      <trkpt lat="42.8835" lon="0.35025">
        <ele>745.397434</ele>
        <time>2021-08-07T17:02:27.942Z</time>
      </trkpt>
      <trkpt lat="42.88306" lon="0.34989">
        <ele>744.956019</ele>
        <time>2021-08-07T17:02:36.991Z</time>
      </trkpt>
      <trkpt lat="42.88301" lon="0.34983">
        <ele>744.894256</ele>
        <time>2021-08-07T17:02:38.134Z</time>
      </trkpt>
      <trkpt lat="42.88287" lon="0.34975">
        <ele>744.765477</ele>
        <time>2021-08-07T17:02:41.038Z</time>
      </trkpt>
      <trkpt lat="42.88247" lon="0.34963">
        <ele>744.42997</ele>
        <time>2021-08-07T17:02:48.834Z</time>
      </trkpt>
      <trkpt lat="42.88243" lon="0.34964">
        <ele>744.413692</ele>
        <time>2021-08-07T17:02:49.568Z</time>
      </trkpt>
      <trkpt lat="42.88184" lon="0.34966">
        <ele>744.17747</ele>
        <time>2021-08-07T17:03:01.039Z</time>
      </trkpt>
      <trkpt lat="42.88146" lon="0.34968">
        <ele>744.029029</ele>
        <time>2021-08-07T17:03:08.554Z</time>
      </trkpt>
      <trkpt lat="42.88131" lon="0.34964">
        <ele>743.967218</ele>
        <time>2021-08-07T17:03:12.250Z</time>
      </trkpt>
      <trkpt lat="42.88105" lon="0.34951">
        <ele>743.856331</ele>
        <time>2021-08-07T17:03:18.945Z</time>
      </trkpt>
      <trkpt lat="42.88085" lon="0.3494">
        <ele>743.773483</ele>
        <time>2021-08-07T17:03:24.108Z</time>
      </trkpt>
      <trkpt lat="42.88069" lon="0.34927">
        <ele>743.706108</ele>
        <time>2021-08-07T17:03:28.664Z</time>
      </trkpt>
      <trkpt lat="42.88063" lon="0.34934">
        <ele>743.682173</ele>
        <time>2021-08-07T17:03:30.874Z</time>
      </trkpt>
      <trkpt lat="42.88029" lon="0.34935">
        <ele>743.581818</ele>
        <time>2021-08-07T17:03:38.528Z</time>
      </trkpt>
      <trkpt lat="42.8791" lon="0.34917">
        <ele>743.224228</ele>
        <time>2021-08-07T17:04:03.098Z</time>
      </trkpt>
      <trkpt lat="42.87847" lon="0.34943">
        <ele>742.829966</ele>
        <time>2021-08-07T17:04:16.147Z</time>
      </trkpt>
      <trkpt lat="42.87745" lon="0.34962">
        <ele>742.159159</ele>
        <time>2021-08-07T17:04:36.702Z</time>
      </trkpt>
      <trkpt lat="42.87627" lon="0.35001">
        <ele>741.664317</ele>
        <time>2021-08-07T17:05:01.416Z</time>
      </trkpt>
      <trkpt lat="42.87599" lon="0.34999">
        <ele>741.566239</ele>
        <time>2021-08-07T17:05:07.204Z</time>
      </trkpt>
      <trkpt lat="42.87582" lon="0.34999">
        <ele>741.502861</ele>
        <time>2021-08-07T17:05:10.872Z</time>
      </trkpt>
      <trkpt lat="42.87467" lon="0.34987">
        <ele>742.139796</ele>
        <time>2021-08-07T17:05:37.060Z</time>
      </trkpt>
      <trkpt lat="42.87411" lon="0.34999">
        <ele>742.670569</ele>
        <time>2021-08-07T17:05:52.256Z</time>
      </trkpt>
      <trkpt lat="42.87351" lon="0.35029">
        <ele>743.27604</ele>
        <time>2021-08-07T17:06:12.423Z</time>
      </trkpt>
      <trkpt lat="42.87296" lon="0.35042">
        <ele>743.821881</ele>
        <time>2021-08-07T17:06:28.667Z</time>
      </trkpt>
      <trkpt lat="42.87228" lon="0.35083">
        <ele>744.536937</ele>
        <time>2021-08-07T17:06:47.772Z</time>
      </trkpt>
      <trkpt lat="42.87204" lon="0.3508">
        <ele>744.770024</ele>
        <time>2021-08-07T17:06:52.736Z</time>
      </trkpt>
      <trkpt lat="42.87151" lon="0.35049">
        <ele>744.032578</ele>
        <time>2021-08-07T17:07:04.383Z</time>
      </trkpt>
      <trkpt lat="42.8705" lon="0.34944">
        <ele>742.186861</ele>
        <time>2021-08-07T17:07:26.386Z</time>
      </trkpt>
      <trkpt lat="42.87048" lon="0.34942">
        <ele>742.204732</ele>
        <time>2021-08-07T17:07:26.713Z</time>
      </trkpt>
      <trkpt lat="42.87039" lon="0.34936">
        <ele>742.281792</ele>
        <time>2021-08-07T17:07:28.502Z</time>
      </trkpt>
      <trkpt lat="42.86982" lon="0.34908">
        <ele>742.769814</ele>
        <time>2021-08-07T17:07:41.088Z</time>
      </trkpt>
      <trkpt lat="42.86973" lon="0.34903">
        <ele>742.841559</ele>
        <time>2021-08-07T17:07:43.113Z</time>
      </trkpt>
      <trkpt lat="42.86951" lon="0.349">
        <ele>743.022821</ele>
        <time>2021-08-07T17:07:49.178Z</time>
      </trkpt>
      <trkpt lat="42.86914" lon="0.34906">
        <ele>743.316548</ele>
        <time>2021-08-07T17:07:59.887Z</time>
      </trkpt>
      <trkpt lat="42.86903" lon="0.3491">
        <ele>743.40609</ele>
        <time>2021-08-07T17:08:03.104Z</time>
      </trkpt>
      <trkpt lat="42.86896" lon="0.34913">
        <ele>743.461777</ele>
        <time>2021-08-07T17:08:05.476Z</time>
      </trkpt>
      <trkpt lat="42.86862" lon="0.34936">
        <ele>744.67168</ele>
        <time>2021-08-07T17:08:19.789Z</time>
      </trkpt>
      <trkpt lat="42.86832" lon="0.34972">
        <ele>746.781674</ele>
        <time>2021-08-07T17:08:35.852Z</time>
      </trkpt>
      <trkpt lat="42.86813" lon="0.34987">
        <ele>747.986537</ele>
        <time>2021-08-07T17:08:45.599Z</time>
      </trkpt>
      <trkpt lat="42.8673" lon="0.35004">
        <ele>752.464609</ele>
        <time>2021-08-07T17:09:25.179Z</time>
      </trkpt>
      <trkpt lat="42.86692" lon="0.35031">
        <ele>755.037864</ele>
        <time>2021-08-07T17:09:46.311Z</time>
      </trkpt>
      <trkpt lat="42.86637" lon="0.35081">
        <ele>759.152778</ele>
        <time>2021-08-07T17:10:18.680Z</time>
      </trkpt>
      <trkpt lat="42.86611" lon="0.35091">
        <ele>760.831204</ele>
        <time>2021-08-07T17:10:31.512Z</time>
      </trkpt>
      <trkpt lat="42.86576" lon="0.35086">
        <ele>763.0205</ele>
        <time>2021-08-07T17:10:47.768Z</time>
      </trkpt>
      <trkpt lat="42.8651" lon="0.35055">
        <ele>766.468689</ele>
        <time>2021-08-07T17:11:18.164Z</time>
      </trkpt>
      <trkpt lat="42.86417" lon="0.35028">
        <ele>770.650784</ele>
        <time>2021-08-07T17:11:57.579Z</time>
      </trkpt>
      <trkpt lat="42.86339" lon="0.35029">
        <ele>772.672053</ele>
        <time>2021-08-07T17:12:22.769Z</time>
      </trkpt>
      <trkpt lat="42.86326" lon="0.35026">
        <ele>772.789239</ele>
        <time>2021-08-07T17:12:27.424Z</time>
      </trkpt>
      <trkpt lat="42.86304" lon="0.3502">
        <ele>772.992593</ele>
        <time>2021-08-07T17:12:32.347Z</time>
      </trkpt>
      <trkpt lat="42.86268" lon="0.35006">
        <ele>773.324476</ele>
        <time>2021-08-07T17:12:41.395Z</time>
      </trkpt>
      <trkpt lat="42.86221" lon="0.35004">
        <ele>773.753361</ele>
        <time>2021-08-07T17:12:52.714Z</time>
      </trkpt>
      <trkpt lat="42.86168" lon="0.34962">
        <ele>773.764116</ele>
        <time>2021-08-07T17:13:04.238Z</time>
      </trkpt>
      <trkpt lat="42.86061" lon="0.34931">
        <ele>773.316405</ele>
        <time>2021-08-07T17:13:25.687Z</time>
      </trkpt>
      <trkpt lat="42.86028" lon="0.34932">
        <ele>773.264657</ele>
        <time>2021-08-07T17:13:34.145Z</time>
      </trkpt>
      <trkpt lat="42.8598" lon="0.34953">
        <ele>774.191019</ele>
        <time>2021-08-07T17:13:47.412Z</time>
      </trkpt>
      <trkpt lat="42.85934" lon="0.34953">
        <ele>775.017671</ele>
        <time>2021-08-07T17:14:01.088Z</time>
      </trkpt>
      <trkpt lat="42.85923" lon="0.34949">
        <ele>775.237218</ele>
        <time>2021-08-07T17:14:06.017Z</time>
      </trkpt>
      <trkpt lat="42.85912" lon="0.34945">
        <ele>775.441651</ele>
        <time>2021-08-07T17:14:08.888Z</time>
      </trkpt>
      <trkpt lat="42.859" lon="0.34944">
        <ele>775.653275</ele>
        <time>2021-08-07T17:14:12.141Z</time>
      </trkpt>
      <trkpt lat="42.85896" lon="0.34943">
        <ele>775.739798</ele>
        <time>2021-08-07T17:14:14.242Z</time>
      </trkpt>
      <trkpt lat="42.85852" lon="0.34946">
        <ele>776.547555</ele>
        <time>2021-08-07T17:14:28.851Z</time>
      </trkpt>
      <trkpt lat="42.85826" lon="0.34954">
        <ele>777.116351</ele>
        <time>2021-08-07T17:14:36.111Z</time>
      </trkpt>
      <trkpt lat="42.85787" lon="0.34969">
        <ele>777.984676</ele>
        <time>2021-08-07T17:14:49.585Z</time>
      </trkpt>
      <trkpt lat="42.85785" lon="0.34969">
        <ele>778.023499</ele>
        <time>2021-08-07T17:14:50.799Z</time>
      </trkpt>
      <trkpt lat="42.85774" lon="0.34971">
        <ele>778.251519</ele>
        <time>2021-08-07T17:14:53.544Z</time>
      </trkpt>
      <trkpt lat="42.85708" lon="0.34963">
        <ele>779.66672</ele>
        <time>2021-08-07T17:15:14.114Z</time>
      </trkpt>
      <trkpt lat="42.85685" lon="0.34964">
        <ele>780.160847</ele>
        <time>2021-08-07T17:15:20.719Z</time>
      </trkpt>
      <trkpt lat="42.85679" lon="0.34964">
        <ele>780.284405</ele>
        <time>2021-08-07T17:15:22.827Z</time>
      </trkpt>
      <trkpt lat="42.8565" lon="0.34965">
        <ele>780.91187</ele>
        <time>2021-08-07T17:15:30.868Z</time>
      </trkpt>
      <trkpt lat="42.85637" lon="0.34966">
        <ele>781.185991</ele>
        <time>2021-08-07T17:15:35.086Z</time>
      </trkpt>
      <trkpt lat="42.85586" lon="0.34966">
        <ele>782.282399</ele>
        <time>2021-08-07T17:15:47.691Z</time>
      </trkpt>
      <trkpt lat="42.85581" lon="0.34967">
        <ele>782.38874</ele>
        <time>2021-08-07T17:15:49.120Z</time>
      </trkpt>
      <trkpt lat="42.85547" lon="0.34965">
        <ele>783.108812</ele>
        <time>2021-08-07T17:16:00.030Z</time>
      </trkpt>
      <trkpt lat="42.85526" lon="0.34964">
        <ele>783.567144</ele>
        <time>2021-08-07T17:16:08.259Z</time>
      </trkpt>
      <trkpt lat="42.85461" lon="0.34966">
        <ele>785.91745</ele>
        <time>2021-08-07T17:16:29.775Z</time>
      </trkpt>
      <trkpt lat="42.85436" lon="0.34956">
        <ele>787.111028</ele>
        <time>2021-08-07T17:16:40.230Z</time>
      </trkpt>
      <trkpt lat="42.8543" lon="0.34955">
        <ele>787.430655</ele>
        <time>2021-08-07T17:16:42.741Z</time>
      </trkpt>
      <trkpt lat="42.85426" lon="0.34956">
        <ele>787.625944</ele>
        <time>2021-08-07T17:16:44.236Z</time>
      </trkpt>
      <trkpt lat="42.85422" lon="0.34962">
        <ele>787.886766</ele>
        <time>2021-08-07T17:16:48.091Z</time>
      </trkpt>
      <trkpt lat="42.85412" lon="0.3508">
        <ele>792.014654</ele>
        <time>2021-08-07T17:17:24.859Z</time>
      </trkpt>
      <trkpt lat="42.85401" lon="0.35092">
        <ele>792.647196</ele>
        <time>2021-08-07T17:17:30.491Z</time>
      </trkpt>
      <trkpt lat="42.85383" lon="0.35093">
        <ele>793.777696</ele>
        <time>2021-08-07T17:17:39.598Z</time>
      </trkpt>
      <trkpt lat="42.85365" lon="0.35099">
        <ele>794.935624</ele>
        <time>2021-08-07T17:17:48.184Z</time>
      </trkpt>
      <trkpt lat="42.85338" lon="0.35108">
        <ele>796.599637</ele>
        <time>2021-08-07T17:18:02.285Z</time>
      </trkpt>
      <trkpt lat="42.85295" lon="0.35118">
        <ele>799.296778</ele>
        <time>2021-08-07T17:18:22.939Z</time>
      </trkpt>
      <trkpt lat="42.85257" lon="0.3511">
        <ele>801.68696</ele>
        <time>2021-08-07T17:18:41.611Z</time>
      </trkpt>
      <trkpt lat="42.85163" lon="0.3512">
        <ele>807.43203</ele>
        <time>2021-08-07T17:19:23.897Z</time>
      </trkpt>
      <trkpt lat="42.85135" lon="0.35124">
        <ele>809.179601</ele>
        <time>2021-08-07T17:19:37.072Z</time>
      </trkpt>
      <trkpt lat="42.85059" lon="0.3515">
        <ele>814.039124</ele>
        <time>2021-08-07T17:20:14.063Z</time>
      </trkpt>
      <trkpt lat="42.85011" lon="0.35174">
        <ele>818.248317</ele>
        <time>2021-08-07T17:20:39.362Z</time>
      </trkpt>
      <trkpt lat="42.84986" lon="0.35189">
        <ele>820.715957</ele>
        <time>2021-08-07T17:20:52.801Z</time>
      </trkpt>
      <trkpt lat="42.84888" lon="0.35246">
        <ele>830.209508</ele>
        <time>2021-08-07T17:22:01.506Z</time>
      </trkpt>
      <trkpt lat="42.84885" lon="0.35248">
        <ele>830.47251</ele>
        <time>2021-08-07T17:22:04.298Z</time>
      </trkpt>
      <trkpt lat="42.84846" lon="0.35266">
        <ele>834.351641</ele>
        <time>2021-08-07T17:22:26.910Z</time>
      </trkpt>
      <trkpt lat="42.84839" lon="0.3527">
        <ele>835.090267</ele>
        <time>2021-08-07T17:22:31.579Z</time>
      </trkpt>
      <trkpt lat="42.84836" lon="0.35274">
        <ele>835.522547</ele>
        <time>2021-08-07T17:22:36.291Z</time>
      </trkpt>
      <trkpt lat="42.84813" lon="0.35317">
        <ele>839.177935</ele>
        <time>2021-08-07T17:22:58.803Z</time>
      </trkpt>
      <trkpt lat="42.8481" lon="0.35318">
        <ele>839.533738</ele>
        <time>2021-08-07T17:23:03.044Z</time>
      </trkpt>
      <trkpt lat="42.84803" lon="0.35316">
        <ele>840.147707</ele>
        <time>2021-08-07T17:23:05.423Z</time>
      </trkpt>
      <trkpt lat="42.84762" lon="0.35291">
        <ele>844.385309</ele>
        <time>2021-08-07T17:23:31.234Z</time>
      </trkpt>
      <trkpt lat="42.84737" lon="0.35267">
        <ele>847.357932</ele>
        <time>2021-08-07T17:23:51.321Z</time>
      </trkpt>
      <trkpt lat="42.84735" lon="0.35263">
        <ele>847.649789</ele>
        <time>2021-08-07T17:23:51.851Z</time>
      </trkpt>
      <trkpt lat="42.84731" lon="0.35258">
        <ele>848.171204</ele>
        <time>2021-08-07T17:23:53.867Z</time>
      </trkpt>
      <trkpt lat="42.84719" lon="0.35238">
        <ele>850.023368</ele>
        <time>2021-08-07T17:24:09.572Z</time>
      </trkpt>
      <trkpt lat="42.84712" lon="0.35232">
        <ele>850.869124</ele>
        <time>2021-08-07T17:24:12.890Z</time>
      </trkpt>
      <trkpt lat="42.84698" lon="0.35232">
        <ele>852.287806</ele>
        <time>2021-08-07T17:24:17.769Z</time>
      </trkpt>
      <trkpt lat="42.84635" lon="0.35285">
        <ele>859.719211</ele>
        <time>2021-08-07T17:25:02.199Z</time>
      </trkpt>
      <trkpt lat="42.84551" lon="0.35323">
        <ele>869.079256</ele>
        <time>2021-08-07T17:26:01.724Z</time>
      </trkpt>
      <trkpt lat="42.84548" lon="0.35324">
        <ele>869.498693</ele>
        <time>2021-08-07T17:26:05.669Z</time>
      </trkpt>
      <trkpt lat="42.84496" lon="0.35351">
        <ele>876.304003</ele>
        <time>2021-08-07T17:26:44.947Z</time>
      </trkpt>
      <trkpt lat="42.84421" lon="0.35376">
        <ele>885.860965</ele>
        <time>2021-08-07T17:27:42.736Z</time>
      </trkpt>
      <trkpt lat="42.84313" lon="0.35395">
        <ele>896.881839</ele>
        <time>2021-08-07T17:28:54.890Z</time>
      </trkpt>
      <trkpt lat="42.8415" lon="0.35399">
        <ele>910.628267</ele>
        <time>2021-08-07T17:30:24.610Z</time>
      </trkpt>
      <trkpt lat="42.8405" lon="0.35393">
        <ele>917.495894</ele>
        <time>2021-08-07T17:31:10.581Z</time>
      </trkpt>
      <trkpt lat="42.83962" lon="0.35402">
        <ele>923.675496</ele>
        <time>2021-08-07T17:31:50.166Z</time>
      </trkpt>
      <trkpt lat="42.83921" lon="0.35396">
        <ele>926.600289</ele>
        <time>2021-08-07T17:32:12.623Z</time>
      </trkpt>
      <trkpt lat="42.83902" lon="0.35392">
        <ele>927.979888</ele>
        <time>2021-08-07T17:32:22.686Z</time>
      </trkpt>
      <trkpt lat="42.83893" lon="0.3539">
        <ele>928.587083</ele>
        <time>2021-08-07T17:32:27.881Z</time>
      </trkpt>
      <trkpt lat="42.83879" lon="0.35387">
        <ele>929.571182</ele>
        <time>2021-08-07T17:32:36.197Z</time>
      </trkpt>
      <trkpt lat="42.83874" lon="0.35385">
        <ele>929.989946</ele>
        <time>2021-08-07T17:32:38.307Z</time>
      </trkpt>
      <trkpt lat="42.83868" lon="0.35387">
        <ele>930.361809</ele>
        <time>2021-08-07T17:32:42.286Z</time>
      </trkpt>
      <trkpt lat="42.83835" lon="0.35383">
        <ele>932.502597</ele>
        <time>2021-08-07T17:33:01.032Z</time>
      </trkpt>
      <trkpt lat="42.83832" lon="0.35382">
        <ele>932.708508</ele>
        <time>2021-08-07T17:33:03.830Z</time>
      </trkpt>
      <trkpt lat="42.83816" lon="0.35376">
        <ele>933.805847</ele>
        <time>2021-08-07T17:33:13.474Z</time>
      </trkpt>
      <trkpt lat="42.83804" lon="0.35387">
        <ele>934.674422</ele>
        <time>2021-08-07T17:33:19.886Z</time>
      </trkpt>
      <trkpt lat="42.83794" lon="0.35398">
        <ele>935.545802</ele>
        <time>2021-08-07T17:33:28.679Z</time>
      </trkpt>
      <trkpt lat="42.83789" lon="0.35402">
        <ele>935.920063</ele>
        <time>2021-08-07T17:33:32.191Z</time>
      </trkpt>
      <trkpt lat="42.83751" lon="0.35402">
        <ele>938.316423</ele>
        <time>2021-08-07T17:33:52.133Z</time>
      </trkpt>
      <trkpt lat="42.83747" lon="0.35402">
        <ele>938.593732</ele>
        <time>2021-08-07T17:33:54.625Z</time>
      </trkpt>
      <trkpt lat="42.83747" lon="0.35406">
        <ele>938.817267</ele>
        <time>2021-08-07T17:33:56.225Z</time>
      </trkpt>
      <trkpt lat="42.83778" lon="0.35426">
        <ele>941.004495</ele>
        <time>2021-08-07T17:34:13.452Z</time>
      </trkpt>
      <trkpt lat="42.83794" lon="0.35433">
        <ele>941.912132</ele>
        <time>2021-08-07T17:34:17.997Z</time>
      </trkpt>
      <trkpt lat="42.83799" lon="0.3543">
        <ele>941.663804</ele>
        <time>2021-08-07T17:34:22.070Z</time>
      </trkpt>
      <trkpt lat="42.83814" lon="0.35434">
        <ele>941.012632</ele>
        <time>2021-08-07T17:34:32.719Z</time>
      </trkpt>
      <trkpt lat="42.83799" lon="0.3543">
        <ele>940.361461</ele>
        <time>2021-08-07T17:34:43.358Z</time>
      </trkpt>
      <trkpt lat="42.83794" lon="0.35433">
        <ele>940.113133</ele>
        <time>2021-08-07T17:34:47.434Z</time>
      </trkpt>
      <trkpt lat="42.83778" lon="0.35426">
        <ele>939.418772</ele>
        <time>2021-08-07T17:34:53.894Z</time>
      </trkpt>
      <trkpt lat="42.83747" lon="0.35406">
        <ele>937.967512</ele>
        <time>2021-08-07T17:35:01.243Z</time>
      </trkpt>
      <trkpt lat="42.83747" lon="0.35402">
        <ele>937.819193</ele>
        <time>2021-08-07T17:35:01.985Z</time>
      </trkpt>
      <trkpt lat="42.83751" lon="0.35402">
        <ele>937.635194</ele>
        <time>2021-08-07T17:35:02.599Z</time>
      </trkpt>
      <trkpt lat="42.83789" lon="0.35402">
        <ele>936.045172</ele>
        <time>2021-08-07T17:35:08.093Z</time>
      </trkpt>
      <trkpt lat="42.83794" lon="0.35398">
        <ele>935.796844</ele>
        <time>2021-08-07T17:35:08.930Z</time>
      </trkpt>
      <trkpt lat="42.83792" lon="0.35394">
        <ele>935.646328</ele>
        <time>2021-08-07T17:35:09.545Z</time>
      </trkpt>
      <trkpt lat="42.83767" lon="0.35371">
        <ele>934.353668</ele>
        <time>2021-08-07T17:35:15.391Z</time>
      </trkpt>
      <trkpt lat="42.83752" lon="0.35369">
        <ele>933.382091</ele>
        <time>2021-08-07T17:35:18.313Z</time>
      </trkpt>
      <trkpt lat="42.83732" lon="0.35358">
        <ele>931.930224</ele>
        <time>2021-08-07T17:35:22.388Z</time>
      </trkpt>
      <trkpt lat="42.83693" lon="0.35313">
        <ele>928.561651</ele>
        <time>2021-08-07T17:35:32.155Z</time>
      </trkpt>
      <trkpt lat="42.83681" lon="0.35295">
        <ele>927.402976</ele>
        <time>2021-08-07T17:35:35.558Z</time>
      </trkpt>
      <trkpt lat="42.83644" lon="0.35247">
        <ele>924.039914</ele>
        <time>2021-08-07T17:35:43.219Z</time>
      </trkpt>
      <trkpt lat="42.83634" lon="0.35238">
        <ele>923.228222</ele>
        <time>2021-08-07T17:35:45.134Z</time>
      </trkpt>
      <trkpt lat="42.83606" lon="0.35233">
        <ele>922.756982</ele>
        <time>2021-08-07T17:35:49.967Z</time>
      </trkpt>
      <trkpt lat="42.83601" lon="0.35225">
        <ele>922.883222</ele>
        <time>2021-08-07T17:35:51.166Z</time>
      </trkpt>
      <trkpt lat="42.83604" lon="0.35217">
        <ele>922.998008</ele>
        <time>2021-08-07T17:35:52.239Z</time>
      </trkpt>
      <trkpt lat="42.83673" lon="0.35242">
        <ele>924.171507</ele>
        <time>2021-08-07T17:36:08.572Z</time>
      </trkpt>
      <trkpt lat="42.83681" lon="0.35238">
        <ele>924.320845</ele>
        <time>2021-08-07T17:36:11.363Z</time>
      </trkpt>
      <trkpt lat="42.83679" lon="0.35228">
        <ele>924.438483</ele>
        <time>2021-08-07T17:36:13.990Z</time>
      </trkpt>
      <trkpt lat="42.83648" lon="0.35214">
        <ele>924.980316</ele>
        <time>2021-08-07T17:36:28.956Z</time>
      </trkpt>
      <trkpt lat="42.83626" lon="0.35197">
        <ele>925.393517</ele>
        <time>2021-08-07T17:36:41.858Z</time>
      </trkpt>
      <trkpt lat="42.83557" lon="0.3513">
        <ele>929.676362</ele>
        <time>2021-08-07T17:37:20.490Z</time>
      </trkpt>
      <trkpt lat="42.83551" lon="0.35122">
        <ele>930.103419</ele>
        <time>2021-08-07T17:37:26.998Z</time>
      </trkpt>
      <trkpt lat="42.83547" lon="0.35117">
        <ele>930.371704</ele>
        <time>2021-08-07T17:37:29.561Z</time>
      </trkpt>
      <trkpt lat="42.83497" lon="0.35019">
        <ele>934.763504</ele>
        <time>2021-08-07T17:38:03.390Z</time>
      </trkpt>
      <trkpt lat="42.83455" lon="0.34959">
        <ele>933.686236</ele>
        <time>2021-08-07T17:38:23.596Z</time>
      </trkpt>
      <trkpt lat="42.83436" lon="0.34911">
        <ele>932.989066</ele>
        <time>2021-08-07T17:38:30.319Z</time>
      </trkpt>
      <trkpt lat="42.83436" lon="0.34902">
        <ele>932.867649</ele>
        <time>2021-08-07T17:38:31.417Z</time>
      </trkpt>
      <trkpt lat="42.83436" lon="0.34881">
        <ele>932.601917</ele>
        <time>2021-08-07T17:38:33.761Z</time>
      </trkpt>
      <trkpt lat="42.83423" lon="0.34842">
        <ele>932.036012</ele>
        <time>2021-08-07T17:38:38.755Z</time>
      </trkpt>
      <trkpt lat="42.83386" lon="0.34802">
        <ele>929.346264</ele>
        <time>2021-08-07T17:38:45.715Z</time>
      </trkpt>
      <trkpt lat="42.83327" lon="0.34684">
        <ele>919.42361</ele>
        <time>2021-08-07T17:39:00.020Z</time>
      </trkpt>
      <trkpt lat="42.83307" lon="0.34632">
        <ele>915.319209</ele>
        <time>2021-08-07T17:39:05.785Z</time>
      </trkpt>
      <trkpt lat="42.83249" lon="0.34538">
        <ele>903.849307</ele>
        <time>2021-08-07T17:39:17.668Z</time>
      </trkpt>
      <trkpt lat="42.83223" lon="0.34484">
        <ele>897.592623</ele>
        <time>2021-08-07T17:39:23.944Z</time>
      </trkpt>
      <trkpt lat="42.83217" lon="0.34439">
        <ele>893.21377</ele>
        <time>2021-08-07T17:39:28.337Z</time>
      </trkpt>
      <trkpt lat="42.83201" lon="0.344">
        <ele>888.873529</ele>
        <time>2021-08-07T17:39:32.690Z</time>
      </trkpt>
      <trkpt lat="42.8318" lon="0.34373">
        <ele>885.16252</ele>
        <time>2021-08-07T17:39:36.432Z</time>
      </trkpt>
      <trkpt lat="42.8313" lon="0.34333">
        <ele>877.537405</ele>
        <time>2021-08-07T17:39:44.155Z</time>
      </trkpt>
      <trkpt lat="42.83098" lon="0.34282">
        <ele>871.060888</ele>
        <time>2021-08-07T17:39:50.684Z</time>
      </trkpt>
      <trkpt lat="42.83032" lon="0.34152">
        <ele>857.089434</ele>
        <time>2021-08-07T17:40:05.801Z</time>
      </trkpt>
      <trkpt lat="42.83012" lon="0.34084">
        <ele>850.77495</ele>
        <time>2021-08-07T17:40:13.026Z</time>
      </trkpt>
      <trkpt lat="42.82997" lon="0.34031">
        <ele>846.024965</ele>
        <time>2021-08-07T17:40:18.987Z</time>
      </trkpt>
      <trkpt lat="42.82978" lon="0.34">
        <ele>844.123123</ele>
        <time>2021-08-07T17:40:23.055Z</time>
      </trkpt>
      <trkpt lat="42.82958" lon="0.33981">
        <ele>842.491806</ele>
        <time>2021-08-07T17:40:26.418Z</time>
      </trkpt>
      <trkpt lat="42.82914" lon="0.33964">
        <ele>839.549643</ele>
        <time>2021-08-07T17:40:32.726Z</time>
      </trkpt>
      <trkpt lat="42.82896" lon="0.33956">
        <ele>838.277897</ele>
        <time>2021-08-07T17:40:35.459Z</time>
      </trkpt>
      <trkpt lat="42.82888" lon="0.33953">
        <ele>837.748768</ele>
        <time>2021-08-07T17:40:36.974Z</time>
      </trkpt>
      <trkpt lat="42.8287" lon="0.33946">
        <ele>836.54393</ele>
        <time>2021-08-07T17:40:40.245Z</time>
      </trkpt>
      <trkpt lat="42.82875" lon="0.33897">
        <ele>834.25051</ele>
        <time>2021-08-07T17:40:47.007Z</time>
      </trkpt>
      <trkpt lat="42.82875" lon="0.33891">
        <ele>834.034825</ele>
        <time>2021-08-07T17:40:47.573Z</time>
      </trkpt>
      <trkpt lat="42.82874" lon="0.33889">
        <ele>833.922833</ele>
        <time>2021-08-07T17:40:47.879Z</time>
      </trkpt>
      <trkpt lat="42.82837" lon="0.3386">
        <ele>831.718379</ele>
        <time>2021-08-07T17:40:55.463Z</time>
      </trkpt>
      <trkpt lat="42.82827" lon="0.33866">
        <ele>831.158462</ele>
        <time>2021-08-07T17:40:58.236Z</time>
      </trkpt>
      <trkpt lat="42.8282" lon="0.33859">
        <ele>830.683129</ele>
        <time>2021-08-07T17:41:00.380Z</time>
      </trkpt>
      <trkpt lat="42.82812" lon="0.33853">
        <ele>830.222711</ele>
        <time>2021-08-07T17:41:01.629Z</time>
      </trkpt>
      <trkpt lat="42.82768" lon="0.33838">
        <ele>827.878542</ele>
        <time>2021-08-07T17:41:08.608Z</time>
      </trkpt>
      <trkpt lat="42.82748" lon="0.33826">
        <ele>826.746179</ele>
        <time>2021-08-07T17:41:11.802Z</time>
      </trkpt>
      <trkpt lat="42.82739" lon="0.3382">
        <ele>826.229488</ele>
        <time>2021-08-07T17:41:13.230Z</time>
      </trkpt>
      <trkpt lat="42.82734" lon="0.33817">
        <ele>825.933406</ele>
        <time>2021-08-07T17:41:14.105Z</time>
      </trkpt>
      <trkpt lat="42.8272" lon="0.33803">
        <ele>824.951675</ele>
        <time>2021-08-07T17:41:16.707Z</time>
      </trkpt>
      <trkpt lat="42.82703" lon="0.33812">
        <ele>823.416419</ele>
        <time>2021-08-07T17:41:19.713Z</time>
      </trkpt>
      <trkpt lat="42.82691" lon="0.33815">
        <ele>822.459196</ele>
        <time>2021-08-07T17:41:21.428Z</time>
      </trkpt>
      <trkpt lat="42.82688" lon="0.33813">
        <ele>822.179087</ele>
        <time>2021-08-07T17:41:22.283Z</time>
      </trkpt>
      <trkpt lat="42.82687" lon="0.33811">
        <ele>822.016202</ele>
        <time>2021-08-07T17:41:22.559Z</time>
      </trkpt>
      <trkpt lat="42.82686" lon="0.33801">
        <ele>821.412241</ele>
        <time>2021-08-07T17:41:23.793Z</time>
      </trkpt>
      <trkpt lat="42.82693" lon="0.33767">
        <ele>819.258178</ele>
        <time>2021-08-07T17:41:27.544Z</time>
      </trkpt>
      <trkpt lat="42.82695" lon="0.33765">
        <ele>819.017607</ele>
        <time>2021-08-07T17:41:27.939Z</time>
      </trkpt>
      <trkpt lat="42.82697" lon="0.33755">
        <ele>818.422316</ele>
        <time>2021-08-07T17:41:29.042Z</time>
      </trkpt>
      <trkpt lat="42.82699" lon="0.33743">
        <ele>817.650608</ele>
        <time>2021-08-07T17:41:30.319Z</time>
      </trkpt>
      <trkpt lat="42.82701" lon="0.33732">
        <ele>816.96578</ele>
        <time>2021-08-07T17:41:31.390Z</time>
      </trkpt>
      <trkpt lat="42.82713" lon="0.33689">
        <ele>814.183061</ele>
        <time>2021-08-07T17:41:36.051Z</time>
      </trkpt>
      <trkpt lat="42.82735" lon="0.33652">
        <ele>811.210367</ele>
        <time>2021-08-07T17:41:40.960Z</time>
      </trkpt>
      <trkpt lat="42.82746" lon="0.33623">
        <ele>809.426196</ele>
        <time>2021-08-07T17:41:44.358Z</time>
      </trkpt>
      <trkpt lat="42.82747" lon="0.3361">
        <ele>808.766701</ele>
        <time>2021-08-07T17:41:45.601Z</time>
      </trkpt>
      <trkpt lat="42.82747" lon="0.33605">
        <ele>808.527166</ele>
        <time>2021-08-07T17:41:46.064Z</time>
      </trkpt>
      <trkpt lat="42.8275" lon="0.33572">
        <ele>806.857557</ele>
        <time>2021-08-07T17:41:49.550Z</time>
      </trkpt>
      <trkpt lat="42.82755" lon="0.33522">
        <ele>804.344652</ele>
        <time>2021-08-07T17:41:54.698Z</time>
      </trkpt>
      <trkpt lat="42.82759" lon="0.33492">
        <ele>802.782746</ele>
        <time>2021-08-07T17:41:58.027Z</time>
      </trkpt>
      <trkpt lat="42.82762" lon="0.33492">
        <ele>802.51951</ele>
        <time>2021-08-07T17:41:58.613Z</time>
      </trkpt>
      <trkpt lat="42.8277" lon="0.3349">
        <ele>802.00168</ele>
        <time>2021-08-07T17:41:59.819Z</time>
      </trkpt>
      <trkpt lat="42.82772" lon="0.33487">
        <ele>801.775353</ele>
        <time>2021-08-07T17:42:00.268Z</time>
      </trkpt>
      <trkpt lat="42.82775" lon="0.33481">
        <ele>801.439188</ele>
        <time>2021-08-07T17:42:00.934Z</time>
      </trkpt>
      <trkpt lat="42.82775" lon="0.33471">
        <ele>800.950952</ele>
        <time>2021-08-07T17:42:02.037Z</time>
      </trkpt>
      <trkpt lat="42.82773" lon="0.33466">
        <ele>800.633689</ele>
        <time>2021-08-07T17:42:02.748Z</time>
      </trkpt>
      <trkpt lat="42.82771" lon="0.33462">
        <ele>800.372753</ele>
        <time>2021-08-07T17:42:03.372Z</time>
      </trkpt>
      <trkpt lat="42.82767" lon="0.3346">
        <ele>800.096408</ele>
        <time>2021-08-07T17:42:04.002Z</time>
      </trkpt>
      <trkpt lat="42.82763" lon="0.33459">
        <ele>799.800486</ele>
        <time>2021-08-07T17:42:04.731Z</time>
      </trkpt>
      <trkpt lat="42.82768" lon="0.33433">
        <ele>798.426598</ele>
        <time>2021-08-07T17:42:07.628Z</time>
      </trkpt>
      <trkpt lat="42.82796" lon="0.33334">
        <ele>796.220486</ele>
        <time>2021-08-07T17:42:20.445Z</time>
      </trkpt>
      <trkpt lat="42.82831" lon="0.33229">
        <ele>794.146635</ele>
        <time>2021-08-07T17:42:35.551Z</time>
      </trkpt>
      <trkpt lat="42.82848" lon="0.33179">
        <ele>793.436378</ele>
        <time>2021-08-07T17:42:43.083Z</time>
      </trkpt>
      <trkpt lat="42.82858" lon="0.33152">
        <ele>793.284896</ele>
        <time>2021-08-07T17:42:47.308Z</time>
      </trkpt>
      <trkpt lat="42.82901" lon="0.33018">
        <ele>792.553571</ele>
        <time>2021-08-07T17:43:08.894Z</time>
      </trkpt>
      <trkpt lat="42.8293" lon="0.32927">
        <ele>792.443839</ele>
        <time>2021-08-07T17:43:25.369Z</time>
      </trkpt>
      <trkpt lat="42.82932" lon="0.32921">
        <ele>792.457843</ele>
        <time>2021-08-07T17:43:26.441Z</time>
      </trkpt>
      <trkpt lat="42.82946" lon="0.32878">
        <ele>792.567403</ele>
        <time>2021-08-07T17:43:34.738Z</time>
      </trkpt>
      <trkpt lat="42.82957" lon="0.32847">
        <ele>792.644223</ele>
        <time>2021-08-07T17:43:40.600Z</time>
      </trkpt>
      <trkpt lat="42.8296" lon="0.3284">
        <ele>792.663704</ele>
        <time>2021-08-07T17:43:42.073Z</time>
      </trkpt>
      <trkpt lat="42.82962" lon="0.32836">
        <ele>792.674845</ele>
        <time>2021-08-07T17:43:42.925Z</time>
      </trkpt>
      <trkpt lat="42.8297" lon="0.32812">
        <ele>792.734319</ele>
        <time>2021-08-07T17:43:47.506Z</time>
      </trkpt>
      <trkpt lat="42.82972" lon="0.32802">
        <ele>792.759166</ele>
        <time>2021-08-07T17:43:49.467Z</time>
      </trkpt>
      <trkpt lat="42.82973" lon="0.32771">
        <ele>792.830009</ele>
        <time>2021-08-07T17:43:54.927Z</time>
      </trkpt>
      <trkpt lat="42.82975" lon="0.32745">
        <ele>792.895878</ele>
        <time>2021-08-07T17:43:59.642Z</time>
      </trkpt>
      <trkpt lat="42.82976" lon="0.32731">
        <ele>792.957952</ele>
        <time>2021-08-07T17:44:02.065Z</time>
      </trkpt>
      <trkpt lat="42.82978" lon="0.32723">
        <ele>792.997793</ele>
        <time>2021-08-07T17:44:03.598Z</time>
      </trkpt>
      <trkpt lat="42.82985" lon="0.32706">
        <ele>793.090414</ele>
        <time>2021-08-07T17:44:07.301Z</time>
      </trkpt>
      <trkpt lat="42.83" lon="0.32675">
        <ele>793.260707</ele>
        <time>2021-08-07T17:44:14.160Z</time>
      </trkpt>
      <trkpt lat="42.83012" lon="0.3264">
        <ele>793.440907</ele>
        <time>2021-08-07T17:44:21.347Z</time>
      </trkpt>
      <trkpt lat="42.8302" lon="0.32618">
        <ele>793.558563</ele>
        <time>2021-08-07T17:44:26.062Z</time>
      </trkpt>
      <trkpt lat="42.83042" lon="0.32584">
        <ele>793.766743</ele>
        <time>2021-08-07T17:44:34.344Z</time>
      </trkpt>
      <trkpt lat="42.83044" lon="0.32582">
        <ele>793.786445</ele>
        <time>2021-08-07T17:44:35.185Z</time>
      </trkpt>
      <trkpt lat="42.83062" lon="0.32564">
        <ele>793.927515</ele>
        <time>2021-08-07T17:44:41.068Z</time>
      </trkpt>
      <trkpt lat="42.8309" lon="0.32555">
        <ele>794.174662</ele>
        <time>2021-08-07T17:44:48.569Z</time>
      </trkpt>
      <trkpt lat="42.83097" lon="0.32542">
        <ele>794.305318</ele>
        <time>2021-08-07T17:44:51.656Z</time>
      </trkpt>
      <trkpt lat="42.83127" lon="0.32456">
        <ele>795.109669</ele>
        <time>2021-08-07T17:45:10.940Z</time>
      </trkpt>
      <trkpt lat="42.83128" lon="0.32449">
        <ele>795.169929</ele>
        <time>2021-08-07T17:45:12.454Z</time>
      </trkpt>
      <trkpt lat="42.83142" lon="0.32407">
        <ele>795.559042</ele>
        <time>2021-08-07T17:45:22.140Z</time>
      </trkpt>
      <trkpt lat="42.83146" lon="0.32359">
        <ele>795.965968</ele>
        <time>2021-08-07T17:45:32.241Z</time>
      </trkpt>
      <trkpt lat="42.83138" lon="0.32301">
        <ele>796.490631</ele>
        <time>2021-08-07T17:45:44.617Z</time>
      </trkpt>
      <trkpt lat="42.83128" lon="0.32261">
        <ele>796.869864</ele>
        <time>2021-08-07T17:45:53.546Z</time>
      </trkpt>
      <trkpt lat="42.83113" lon="0.32186">
        <ele>797.573181</ele>
        <time>2021-08-07T17:46:09.741Z</time>
      </trkpt>
      <trkpt lat="42.83107" lon="0.32173">
        <ele>797.716232</ele>
        <time>2021-08-07T17:46:12.939Z</time>
      </trkpt>
      <trkpt lat="42.83037" lon="0.32093">
        <ele>798.656305</ele>
        <time>2021-08-07T17:46:37.688Z</time>
      </trkpt>
      <trkpt lat="42.82945" lon="0.3196">
        <ele>799.741575</ele>
        <time>2021-08-07T17:47:12.963Z</time>
      </trkpt>
      <trkpt lat="42.82916" lon="0.31929">
        <ele>799.961813</ele>
        <time>2021-08-07T17:47:22.401Z</time>
      </trkpt>
      <trkpt lat="42.82873" lon="0.31915">
        <ele>800.216462</ele>
        <time>2021-08-07T17:47:33.561Z</time>
      </trkpt>
      <trkpt lat="42.82866" lon="0.31899">
        <ele>800.295793</ele>
        <time>2021-08-07T17:47:36.983Z</time>
      </trkpt>
      <trkpt lat="42.82867" lon="0.31883">
        <ele>800.364586</ele>
        <time>2021-08-07T17:47:40.065Z</time>
      </trkpt>
      <trkpt lat="42.82914" lon="0.31896">
        <ele>800.638224</ele>
        <time>2021-08-07T17:47:51.338Z</time>
      </trkpt>
      <trkpt lat="42.82935" lon="0.31908">
        <ele>800.77313</ele>
        <time>2021-08-07T17:47:56.929Z</time>
      </trkpt>
      <trkpt lat="42.8306" lon="0.32026">
        <ele>802.786133</ele>
        <time>2021-08-07T17:48:36.341Z</time>
      </trkpt>
      <trkpt lat="42.83091" lon="0.32046">
        <ele>803.279256</ele>
        <time>2021-08-07T17:48:47.166Z</time>
      </trkpt>
      <trkpt lat="42.83162" lon="0.3211">
        <ele>808.689917</ele>
        <time>2021-08-07T17:49:17.819Z</time>
      </trkpt>
      <trkpt lat="42.83193" lon="0.32119">
        <ele>810.694646</ele>
        <time>2021-08-07T17:49:33.627Z</time>
      </trkpt>
      <trkpt lat="42.83212" lon="0.32147">
        <ele>812.463014</ele>
        <time>2021-08-07T17:49:50.208Z</time>
      </trkpt>
      <trkpt lat="42.83242" lon="0.32166">
        <ele>814.520817</ele>
        <time>2021-08-07T17:50:10.933Z</time>
      </trkpt>
      <trkpt lat="42.83303" lon="0.32183">
        <ele>823.468235</ele>
        <time>2021-08-07T17:50:53.325Z</time>
      </trkpt>
      <trkpt lat="42.83308" lon="0.32186">
        <ele>824.24594</ele>
        <time>2021-08-07T17:50:59.301Z</time>
      </trkpt>
      <trkpt lat="42.83317" lon="0.32191">
        <ele>825.727312</ele>
        <time>2021-08-07T17:51:06.335Z</time>
      </trkpt>
      <trkpt lat="42.83343" lon="0.32196">
        <ele>829.564806</ele>
        <time>2021-08-07T17:51:28.568Z</time>
      </trkpt>
      <trkpt lat="42.83361" lon="0.32208">
        <ele>832.535894</ele>
        <time>2021-08-07T17:51:44.464Z</time>
      </trkpt>
      <trkpt lat="42.83367" lon="0.32241">
        <ele>836.142554</ele>
        <time>2021-08-07T17:52:07.050Z</time>
      </trkpt>
      <trkpt lat="42.83382" lon="0.32264">
        <ele>839.415145</ele>
        <time>2021-08-07T17:52:27.366Z</time>
      </trkpt>
      <trkpt lat="42.83461" lon="0.3232">
        <ele>855.166525</ele>
        <time>2021-08-07T17:53:56.363Z</time>
      </trkpt>
      <trkpt lat="42.83569" lon="0.32466">
        <ele>881.694872</ele>
        <time>2021-08-07T17:56:18.828Z</time>
      </trkpt>
      <trkpt lat="42.83666" lon="0.32557">
        <ele>900.415935</ele>
        <time>2021-08-07T17:58:00.704Z</time>
      </trkpt>
      <trkpt lat="42.83693" lon="0.3259">
        <ele>904.418465</ele>
        <time>2021-08-07T17:58:26.958Z</time>
      </trkpt>
      <trkpt lat="42.83705" lon="0.32592">
        <ele>905.458956</ele>
        <time>2021-08-07T17:58:33.530Z</time>
      </trkpt>
      <trkpt lat="42.83707" lon="0.32589">
        <ele>905.718195</ele>
        <time>2021-08-07T17:58:37.021Z</time>
      </trkpt>
      <trkpt lat="42.83708" lon="0.32586">
        <ele>905.927771</ele>
        <time>2021-08-07T17:58:38.998Z</time>
      </trkpt>
      <trkpt lat="42.83706" lon="0.32575">
        <ele>906.698698</ele>
        <time>2021-08-07T17:58:43.619Z</time>
      </trkpt>
      <trkpt lat="42.83676" lon="0.32543">
        <ele>910.096643</ele>
        <time>2021-08-07T17:59:05.846Z</time>
      </trkpt>
      <trkpt lat="42.83655" lon="0.32511">
        <ele>912.914817</ele>
        <time>2021-08-07T17:59:22.555Z</time>
      </trkpt>
      <trkpt lat="42.83638" lon="0.32467">
        <ele>916.14333</ele>
        <time>2021-08-07T17:59:39.948Z</time>
      </trkpt>
      <trkpt lat="42.8361" lon="0.32426">
        <ele>918.698905</ele>
        <time>2021-08-07T17:59:58.565Z</time>
      </trkpt>
      <trkpt lat="42.83572" lon="0.32341">
        <ele>920.68732</ele>
        <time>2021-08-07T18:00:24.700Z</time>
      </trkpt>
      <trkpt lat="42.83535" lon="0.3228">
        <ele>922.276835</ele>
        <time>2021-08-07T18:00:41.480Z</time>
      </trkpt>
      <trkpt lat="42.83492" lon="0.32251">
        <ele>922.752341</ele>
        <time>2021-08-07T18:00:52.891Z</time>
      </trkpt>
      <trkpt lat="42.83482" lon="0.32236">
        <ele>922.4373</ele>
        <time>2021-08-07T18:00:56.568Z</time>
      </trkpt>
      <trkpt lat="42.8348" lon="0.32207">
        <ele>921.997478</ele>
        <time>2021-08-07T18:01:01.533Z</time>
      </trkpt>
      <trkpt lat="42.83513" lon="0.32154">
        <ele>920.92893</ele>
        <time>2021-08-07T18:01:12.733Z</time>
      </trkpt>
      <trkpt lat="42.8352" lon="0.32132">
        <ele>920.574781</ele>
        <time>2021-08-07T18:01:15.779Z</time>
      </trkpt>
      <trkpt lat="42.83482" lon="0.32046">
        <ele>918.675398</ele>
        <time>2021-08-07T18:01:26.760Z</time>
      </trkpt>
      <trkpt lat="42.8347" lon="0.32043">
        <ele>918.12773</ele>
        <time>2021-08-07T18:01:28.357Z</time>
      </trkpt>
      <trkpt lat="42.83415" lon="0.32058">
        <ele>915.625224</ele>
        <time>2021-08-07T18:01:36.735Z</time>
      </trkpt>
      <trkpt lat="42.83404" lon="0.32041">
        <ele>914.915886</ele>
        <time>2021-08-07T18:01:38.920Z</time>
      </trkpt>
      <trkpt lat="42.83401" lon="0.32004">
        <ele>913.696777</ele>
        <time>2021-08-07T18:01:44.219Z</time>
      </trkpt>
      <trkpt lat="42.83383" lon="0.31992">
        <ele>912.799699</ele>
        <time>2021-08-07T18:01:47.270Z</time>
      </trkpt>
      <trkpt lat="42.83366" lon="0.3199">
        <ele>912.046336</ele>
        <time>2021-08-07T18:01:50.704Z</time>
      </trkpt>
      <trkpt lat="42.83361" lon="0.31987">
        <ele>911.777506</ele>
        <time>2021-08-07T18:01:51.476Z</time>
      </trkpt>
      <trkpt lat="42.83343" lon="0.31962">
        <ele>912.19394</ele>
        <time>2021-08-07T18:01:59.169Z</time>
      </trkpt>
      <trkpt lat="42.83312" lon="0.31932">
        <ele>914.142538</ele>
        <time>2021-08-07T18:02:07.175Z</time>
      </trkpt>
      <trkpt lat="42.83301" lon="0.31897">
        <ele>915.613099</ele>
        <time>2021-08-07T18:02:15.116Z</time>
      </trkpt>
      <trkpt lat="42.83273" lon="0.31866">
        <ele>917.462893</ele>
        <time>2021-08-07T18:02:30.087Z</time>
      </trkpt>
      <trkpt lat="42.83257" lon="0.31836">
        <ele>918.883574</ele>
        <time>2021-08-07T18:02:44.824Z</time>
      </trkpt>
      <trkpt lat="42.83217" lon="0.31795">
        <ele>923.547556</ele>
        <time>2021-08-07T18:03:23.111Z</time>
      </trkpt>
      <trkpt lat="42.83195" lon="0.31759">
        <ele>929.854452</ele>
        <time>2021-08-07T18:03:51.985Z</time>
      </trkpt>
      <trkpt lat="42.83164" lon="0.31731">
        <ele>936.739465</ele>
        <time>2021-08-07T18:04:26.976Z</time>
      </trkpt>
      <trkpt lat="42.83121" lon="0.31639">
        <ele>951.696267</ele>
        <time>2021-08-07T18:05:53.267Z</time>
      </trkpt>
      <trkpt lat="42.83122" lon="0.31597">
        <ele>957.785441</ele>
        <time>2021-08-07T18:06:27.978Z</time>
      </trkpt>
      <trkpt lat="42.83113" lon="0.31542">
        <ele>966.612777</ele>
        <time>2021-08-07T18:07:15.666Z</time>
      </trkpt>
      <trkpt lat="42.83119" lon="0.31521">
        <ele>970.144314</ele>
        <time>2021-08-07T18:07:34.794Z</time>
      </trkpt>
      <trkpt lat="42.83164" lon="0.3144">
        <ele>985.889311</ele>
        <time>2021-08-07T18:08:56.695Z</time>
      </trkpt>
      <trkpt lat="42.83168" lon="0.31427">
        <ele>988.021945</ele>
        <time>2021-08-07T18:09:06.618Z</time>
      </trkpt>
      <trkpt lat="42.83165" lon="0.31414">
        <ele>990.133323</ele>
        <time>2021-08-07T18:09:16.069Z</time>
      </trkpt>
      <trkpt lat="42.83158" lon="0.31404">
        <ele>992.197428</ele>
        <time>2021-08-07T18:09:25.111Z</time>
      </trkpt>
      <trkpt lat="42.83103" lon="0.31367">
        <ele>1002.110687</ele>
        <time>2021-08-07T18:10:15.021Z</time>
      </trkpt>
      <trkpt lat="42.83055" lon="0.31344">
        <ele>1010.468001</ele>
        <time>2021-08-07T18:10:55.947Z</time>
      </trkpt>
      <trkpt lat="42.83043" lon="0.31329">
        <ele>1012.980399</ele>
        <time>2021-08-07T18:11:08.479Z</time>
      </trkpt>
      <trkpt lat="42.83045" lon="0.31272">
        <ele>1019.844077</ele>
        <time>2021-08-07T18:11:45.902Z</time>
      </trkpt>
      <trkpt lat="42.83061" lon="0.31214">
        <ele>1029.349169</ele>
        <time>2021-08-07T18:12:30.529Z</time>
      </trkpt>
      <trkpt lat="42.83058" lon="0.31192">
        <ele>1032.969443</ele>
        <time>2021-08-07T18:12:47.447Z</time>
      </trkpt>
      <trkpt lat="42.83039" lon="0.31137">
        <ele>1042.868021</ele>
        <time>2021-08-07T18:13:35.977Z</time>
      </trkpt>
      <trkpt lat="42.83052" lon="0.31098">
        <ele>1049.802522</ele>
        <time>2021-08-07T18:14:11.575Z</time>
      </trkpt>
      <trkpt lat="42.83056" lon="0.31058">
        <ele>1056.38419</ele>
        <time>2021-08-07T18:14:45.586Z</time>
      </trkpt>
      <trkpt lat="42.83043" lon="0.30998">
        <ele>1066.408898</ele>
        <time>2021-08-07T18:15:37.628Z</time>
      </trkpt>
      <trkpt lat="42.83043" lon="0.30978">
        <ele>1069.597178</ele>
        <time>2021-08-07T18:15:54.359Z</time>
      </trkpt>
      <trkpt lat="42.83052" lon="0.30938">
        <ele>1076.266877</ele>
        <time>2021-08-07T18:16:29.258Z</time>
      </trkpt>
      <trkpt lat="42.83077" lon="0.30907">
        <ele>1083.800001</ele>
        <time>2021-08-07T18:17:07.983Z</time>
      </trkpt>
      <trkpt lat="42.83081" lon="0.30894">
        <ele>1085.935987</ele>
        <time>2021-08-07T18:17:18.159Z</time>
      </trkpt>
      <trkpt lat="42.83058" lon="0.30774">
        <ele>1104.204832</ele>
        <time>2021-08-07T18:18:47.459Z</time>
      </trkpt>
      <trkpt lat="42.8306" lon="0.30673">
        <ele>1115.261616</ele>
        <time>2021-08-07T18:19:49.339Z</time>
      </trkpt>
      <trkpt lat="42.83066" lon="0.30658">
        <ele>1117.148456</ele>
        <time>2021-08-07T18:19:57.624Z</time>
      </trkpt>
      <trkpt lat="42.83071" lon="0.30656">
        <ele>1117.959988</ele>
        <time>2021-08-07T18:20:03.805Z</time>
      </trkpt>
      <trkpt lat="42.83075" lon="0.30658">
        <ele>1118.581949</ele>
        <time>2021-08-07T18:20:07.523Z</time>
      </trkpt>
      <trkpt lat="42.83079" lon="0.30666">
        <ele>1119.656532</ele>
        <time>2021-08-07T18:20:12.335Z</time>
      </trkpt>
      <trkpt lat="42.83077" lon="0.30764">
        <ele>1129.729256</ele>
        <time>2021-08-07T18:21:04.462Z</time>
      </trkpt>
      <trkpt lat="42.83109" lon="0.30836">
        <ele>1136.667283</ele>
        <time>2021-08-07T18:21:49.693Z</time>
      </trkpt>
      <trkpt lat="42.83134" lon="0.30874">
        <ele>1140.9184</ele>
        <time>2021-08-07T18:22:14.466Z</time>
      </trkpt>
      <trkpt lat="42.83147" lon="0.30916">
        <ele>1144.699617</ele>
        <time>2021-08-07T18:22:34.659Z</time>
      </trkpt>
      <trkpt lat="42.83157" lon="0.30917">
        <ele>1145.848454</ele>
        <time>2021-08-07T18:22:40.771Z</time>
      </trkpt>
      <trkpt lat="42.8316" lon="0.30904">
        <ele>1146.934129</ele>
        <time>2021-08-07T18:22:46.092Z</time>
      </trkpt>
      <trkpt lat="42.83127" lon="0.3083">
        <ele>1154.61789</ele>
        <time>2021-08-07T18:23:24.802Z</time>
      </trkpt>
      <trkpt lat="42.83114" lon="0.30775">
        <ele>1159.792144</ele>
        <time>2021-08-07T18:23:56.295Z</time>
      </trkpt>
      <trkpt lat="42.83115" lon="0.30753">
        <ele>1161.750889</ele>
        <time>2021-08-07T18:24:08.857Z</time>
      </trkpt>
      <trkpt lat="42.8313" lon="0.30683">
        <ele>1168.22602</ele>
        <time>2021-08-07T18:24:46.744Z</time>
      </trkpt>
      <trkpt lat="42.83133" lon="0.30674">
        <ele>1169.169556</ele>
        <time>2021-08-07T18:24:54.660Z</time>
      </trkpt>
      <trkpt lat="42.83139" lon="0.30655">
        <ele>1171.461817</ele>
        <time>2021-08-07T18:25:08.385Z</time>
      </trkpt>
      <trkpt lat="42.83154" lon="0.30598">
        <ele>1178.650259</ele>
        <time>2021-08-07T18:25:42.476Z</time>
      </trkpt>
      <trkpt lat="42.83159" lon="0.30542">
        <ele>1185.498412</ele>
        <time>2021-08-07T18:26:20.067Z</time>
      </trkpt>
      <trkpt lat="42.83145" lon="0.30497">
        <ele>1191.314596</ele>
        <time>2021-08-07T18:26:55.309Z</time>
      </trkpt>
      <trkpt lat="42.83141" lon="0.30484">
        <ele>1193.005604</ele>
        <time>2021-08-07T18:27:07.056Z</time>
      </trkpt>
      <trkpt lat="42.83139" lon="0.30476">
        <ele>1194.068565</ele>
        <time>2021-08-07T18:27:14.597Z</time>
      </trkpt>
      <trkpt lat="42.83137" lon="0.30427">
        <ele>1199.528908</ele>
        <time>2021-08-07T18:27:45.856Z</time>
      </trkpt>
      <trkpt lat="42.83141" lon="0.30391">
        <ele>1202.34533</ele>
        <time>2021-08-07T18:28:03.332Z</time>
      </trkpt>
      <trkpt lat="42.83145" lon="0.30378">
        <ele>1203.372553</ele>
        <time>2021-08-07T18:28:14.081Z</time>
      </trkpt>
      <trkpt lat="42.83156" lon="0.30343">
        <ele>1206.3354</ele>
        <time>2021-08-07T18:28:29.816Z</time>
      </trkpt>
      <trkpt lat="42.8317" lon="0.30275">
        <ele>1211.696895</ele>
        <time>2021-08-07T18:29:03.732Z</time>
      </trkpt>
      <trkpt lat="42.83165" lon="0.30259">
        <ele>1213.064131</ele>
        <time>2021-08-07T18:29:09.416Z</time>
      </trkpt>
      <trkpt lat="42.83144" lon="0.30234">
        <ele>1215.994003</ele>
        <time>2021-08-07T18:29:23.287Z</time>
      </trkpt>
      <trkpt lat="42.83132" lon="0.30201">
        <ele>1218.412884</ele>
        <time>2021-08-07T18:29:36.722Z</time>
      </trkpt>
      <trkpt lat="42.8312" lon="0.30158">
        <ele>1220.793876</ele>
        <time>2021-08-07T18:29:51.275Z</time>
      </trkpt>
      <trkpt lat="42.83115" lon="0.30136">
        <ele>1221.953774</ele>
        <time>2021-08-07T18:29:57.908Z</time>
      </trkpt>
      <trkpt lat="42.831" lon="0.30098">
        <ele>1224.151235</ele>
        <time>2021-08-07T18:30:11.502Z</time>
      </trkpt>
      <trkpt lat="42.83094" lon="0.3003">
        <ele>1227.629238</ele>
        <time>2021-08-07T18:30:35.711Z</time>
      </trkpt>
      <trkpt lat="42.8309" lon="0.29994">
        <ele>1229.43894</ele>
        <time>2021-08-07T18:30:50.006Z</time>
      </trkpt>
      <trkpt lat="42.83081" lon="0.29918">
        <ele>1236.942319</ele>
        <time>2021-08-07T18:31:26.385Z</time>
      </trkpt>
      <trkpt lat="42.8308" lon="0.29778">
        <ele>1251.862402</ele>
        <time>2021-08-07T18:32:54.543Z</time>
      </trkpt>
      <trkpt lat="42.83086" lon="0.29705">
        <ele>1259.743966</ele>
        <time>2021-08-07T18:33:46.960Z</time>
      </trkpt>
      <trkpt lat="42.83096" lon="0.29678">
        <ele>1262.968626</ele>
        <time>2021-08-07T18:34:06.529Z</time>
      </trkpt>
      <trkpt lat="42.83097" lon="0.29669">
        <ele>1264.019188</ele>
        <time>2021-08-07T18:34:14.676Z</time>
      </trkpt>
      <trkpt lat="42.83096" lon="0.29647">
        <ele>1266.447275</ele>
        <time>2021-08-07T18:34:27.514Z</time>
      </trkpt>
      <trkpt lat="42.83093" lon="0.29599">
        <ele>1271.740836</ele>
        <time>2021-08-07T18:34:59.177Z</time>
      </trkpt>
      <trkpt lat="42.83092" lon="0.29586">
        <ele>1273.099004</ele>
        <time>2021-08-07T18:35:06.814Z</time>
      </trkpt>
      <trkpt lat="42.8309" lon="0.29549">
        <ele>1277.154139</ele>
        <time>2021-08-07T18:35:27.413Z</time>
      </trkpt>
      <trkpt lat="42.83094" lon="0.29504">
        <ele>1282.151875</ele>
        <time>2021-08-07T18:35:50.421Z</time>
      </trkpt>
      <trkpt lat="42.83091" lon="0.29498">
        <ele>1282.909222</ele>
        <time>2021-08-07T18:35:55.773Z</time>
      </trkpt>
      <trkpt lat="42.83091" lon="0.29494">
        <ele>1283.21108</ele>
        <time>2021-08-07T18:35:57.867Z</time>
      </trkpt>
      <trkpt lat="42.83079" lon="0.29469">
        <ele>1284.67527</ele>
        <time>2021-08-07T18:36:10.851Z</time>
      </trkpt>
      <trkpt lat="42.83052" lon="0.29437">
        <ele>1287.050989</ele>
        <time>2021-08-07T18:36:27.497Z</time>
      </trkpt>
      <trkpt lat="42.83043" lon="0.29428">
        <ele>1287.814726</ele>
        <time>2021-08-07T18:36:34.963Z</time>
      </trkpt>
      <trkpt lat="42.83032" lon="0.29424">
        <ele>1288.623808</ele>
        <time>2021-08-07T18:36:39.037Z</time>
      </trkpt>
      <trkpt lat="42.83026" lon="0.29423">
        <ele>1289.021372</ele>
        <time>2021-08-07T18:36:40.650Z</time>
      </trkpt>
      <trkpt lat="42.83005" lon="0.29408">
        <ele>1290.594263</ele>
        <time>2021-08-07T18:36:51.393Z</time>
      </trkpt>
      <trkpt lat="42.8298" lon="0.2936">
        <ele>1293.543162</ele>
        <time>2021-08-07T18:37:10.050Z</time>
      </trkpt>
      <trkpt lat="42.82941" lon="0.29303">
        <ele>1297.366934</ele>
        <time>2021-08-07T18:37:36.563Z</time>
      </trkpt>
      <trkpt lat="42.82919" lon="0.29256">
        <ele>1300.174011</ele>
        <time>2021-08-07T18:37:54.420Z</time>
      </trkpt>
      <trkpt lat="42.82915" lon="0.29255">
        <ele>1300.448837</ele>
        <time>2021-08-07T18:37:56.145Z</time>
      </trkpt>
      <trkpt lat="42.82912" lon="0.29239">
        <ele>1301.231559</ele>
        <time>2021-08-07T18:38:05.184Z</time>
      </trkpt>
      <trkpt lat="42.82909" lon="0.29203">
        <ele>1303.021483</ele>
        <time>2021-08-07T18:38:15.984Z</time>
      </trkpt>
      <trkpt lat="42.82907" lon="0.29184">
        <ele>1303.989796</ele>
        <time>2021-08-07T18:38:26.365Z</time>
      </trkpt>
      <trkpt lat="42.829" lon="0.29152">
        <ele>1305.686397</ele>
        <time>2021-08-07T18:38:37.823Z</time>
      </trkpt>
      <trkpt lat="42.82862" lon="0.29068">
        <ele>1310.372861</ele>
        <time>2021-08-07T18:39:16.725Z</time>
      </trkpt>
      <trkpt lat="42.82848" lon="0.2897">
        <ele>1315.042379</ele>
        <time>2021-08-07T18:39:51.325Z</time>
      </trkpt>
      <trkpt lat="42.82785" lon="0.28837">
        <ele>1323.355833</ele>
        <time>2021-08-07T18:40:42.239Z</time>
      </trkpt>
      <trkpt lat="42.82772" lon="0.28812">
        <ele>1325.149467</ele>
        <time>2021-08-07T18:40:51.191Z</time>
      </trkpt>
      <trkpt lat="42.82769" lon="0.28801">
        <ele>1325.814826</ele>
        <time>2021-08-07T18:40:58.320Z</time>
      </trkpt>
      <trkpt lat="42.8277" lon="0.28782">
        <ele>1326.937568</ele>
        <time>2021-08-07T18:41:04.537Z</time>
      </trkpt>
      <trkpt lat="42.82799" lon="0.28746">
        <ele>1330.05685</ele>
        <time>2021-08-07T18:41:27.124Z</time>
      </trkpt>
      <trkpt lat="42.82801" lon="0.28729">
        <ele>1331.033773</ele>
        <time>2021-08-07T18:41:34.690Z</time>
      </trkpt>
      <trkpt lat="42.82795" lon="0.28713">
        <ele>1332.068348</ele>
        <time>2021-08-07T18:41:44.438Z</time>
      </trkpt>
      <trkpt lat="42.82756" lon="0.2868">
        <ele>1337.721647</ele>
        <time>2021-08-07T18:42:15.286Z</time>
      </trkpt>
      <trkpt lat="42.82741" lon="0.2864">
        <ele>1342.277865</ele>
        <time>2021-08-07T18:42:41.106Z</time>
      </trkpt>
      <trkpt lat="42.82734" lon="0.28604">
        <ele>1346.085668</ele>
        <time>2021-08-07T18:43:01.843Z</time>
      </trkpt>
      <trkpt lat="42.82741" lon="0.28477">
        <ele>1359.084924</ele>
        <time>2021-08-07T18:44:18.812Z</time>
      </trkpt>
      <trkpt lat="42.82758" lon="0.28382">
        <ele>1370.797444</ele>
        <time>2021-08-07T18:45:22.949Z</time>
      </trkpt>
      <trkpt lat="42.82754" lon="0.28178">
        <ele>1394.23424</ele>
        <time>2021-08-07T18:47:35.614Z</time>
      </trkpt>
      <trkpt lat="42.82763" lon="0.27915">
        <ele>1420.849248</ele>
        <time>2021-08-07T18:50:03.347Z</time>
      </trkpt>
      <trkpt lat="42.82757" lon="0.27859">
        <ele>1426.051154</ele>
        <time>2021-08-07T18:50:32.311Z</time>
      </trkpt>
      <trkpt lat="42.82725" lon="0.27773">
        <ele>1434.935606</ele>
        <time>2021-08-07T18:51:21.182Z</time>
      </trkpt>
      <trkpt lat="42.82719" lon="0.27722">
        <ele>1439.669043</ele>
        <time>2021-08-07T18:51:48.945Z</time>
      </trkpt>
      <trkpt lat="42.82708" lon="0.27662">
        <ele>1445.383442</ele>
        <time>2021-08-07T18:52:22.788Z</time>
      </trkpt>
      <trkpt lat="42.82701" lon="0.27596">
        <ele>1451.580471</ele>
        <time>2021-08-07T18:52:57.682Z</time>
      </trkpt>
      <trkpt lat="42.827" lon="0.27574">
        <ele>1453.614913</ele>
        <time>2021-08-07T18:53:10.586Z</time>
      </trkpt>
      <trkpt lat="42.82701" lon="0.27492">
        <ele>1460.728771</ele>
        <time>2021-08-07T18:53:55.664Z</time>
      </trkpt>
      <trkpt lat="42.82688" lon="0.27378">
        <ele>1469.689818</ele>
        <time>2021-08-07T18:54:51.395Z</time>
      </trkpt>
      <trkpt lat="42.8268" lon="0.27352">
        <ele>1471.904362</ele>
        <time>2021-08-07T18:55:04.198Z</time>
      </trkpt>
      <trkpt lat="42.82642" lon="0.27265">
        <ele>1479.267381</ele>
        <time>2021-08-07T18:55:46.325Z</time>
      </trkpt>
      <trkpt lat="42.82614" lon="0.27202">
        <ele>1483.829466</ele>
        <time>2021-08-07T18:56:20.085Z</time>
      </trkpt>
      <trkpt lat="42.82607" lon="0.27157">
        <ele>1486.630047</ele>
        <time>2021-08-07T18:56:41.038Z</time>
      </trkpt>
      <trkpt lat="42.82606" lon="0.27121">
        <ele>1488.887818</ele>
        <time>2021-08-07T18:56:56.110Z</time>
      </trkpt>
      <trkpt lat="42.82607" lon="0.27096">
        <ele>1490.437857</ele>
        <time>2021-08-07T18:57:06.650Z</time>
      </trkpt>
      <trkpt lat="42.82612" lon="0.27028">
        <ele>1493.733795</ele>
        <time>2021-08-07T18:57:27.949Z</time>
      </trkpt>
      <trkpt lat="42.82611" lon="0.27007">
        <ele>1494.485147</ele>
        <time>2021-08-07T18:57:33.681Z</time>
      </trkpt>
      <trkpt lat="42.82609" lon="0.26992">
        <ele>1495.045551</ele>
        <time>2021-08-07T18:57:38.783Z</time>
      </trkpt>
      <trkpt lat="42.826" lon="0.26959">
        <ele>1496.338383</ele>
        <time>2021-08-07T18:57:46.630Z</time>
      </trkpt>
      <trkpt lat="42.82581" lon="0.26946">
        <ele>1497.350623</ele>
        <time>2021-08-07T18:57:55.760Z</time>
      </trkpt>
      <trkpt lat="42.82576" lon="0.26947">
        <ele>1497.629438</ele>
        <time>2021-08-07T18:57:59.202Z</time>
      </trkpt>
      <trkpt lat="42.82572" lon="0.26949">
        <ele>1497.854842</ele>
        <time>2021-08-07T18:57:59.898Z</time>
      </trkpt>
      <trkpt lat="42.82563" lon="0.26964">
        <ele>1498.542458</ele>
        <time>2021-08-07T18:58:08.194Z</time>
      </trkpt>
      <trkpt lat="42.82561" lon="0.26976">
        <ele>1498.990069</ele>
        <time>2021-08-07T18:58:11.964Z</time>
      </trkpt>
      <trkpt lat="42.82564" lon="0.27024">
        <ele>1500.703686</ele>
        <time>2021-08-07T18:58:26.266Z</time>
      </trkpt>
      <trkpt lat="42.82565" lon="0.27042">
        <ele>1501.417339</ele>
        <time>2021-08-07T18:58:30.640Z</time>
      </trkpt>
      <trkpt lat="42.82559" lon="0.27077">
        <ele>1503.546056</ele>
        <time>2021-08-07T18:58:43.698Z</time>
      </trkpt>
      <trkpt lat="42.82553" lon="0.2709">
        <ele>1504.488147</ele>
        <time>2021-08-07T18:58:45.667Z</time>
      </trkpt>
      <trkpt lat="42.82545" lon="0.27093">
        <ele>1505.088613</ele>
        <time>2021-08-07T18:58:49.943Z</time>
      </trkpt>
      <trkpt lat="42.82537" lon="0.27093">
        <ele>1505.779406</ele>
        <time>2021-08-07T18:58:53.581Z</time>
      </trkpt>
      <trkpt lat="42.82528" lon="0.2709">
        <ele>1506.511483</ele>
        <time>2021-08-07T18:58:58.298Z</time>
      </trkpt>
      <trkpt lat="42.82524" lon="0.27084">
        <ele>1506.980343</ele>
        <time>2021-08-07T18:59:00.295Z</time>
      </trkpt>
      <trkpt lat="42.82518" lon="0.2707">
        <ele>1507.947621</ele>
        <time>2021-08-07T18:59:04.328Z</time>
      </trkpt>
      <trkpt lat="42.82519" lon="0.27048">
        <ele>1509.255077</ele>
        <time>2021-08-07T18:59:13.169Z</time>
      </trkpt>
      <trkpt lat="42.82532" lon="0.26953">
        <ele>1515.007552</ele>
        <time>2021-08-07T18:59:57.703Z</time>
      </trkpt>
      <trkpt lat="42.82528" lon="0.26865">
        <ele>1522.270946</ele>
        <time>2021-08-07T19:00:50.734Z</time>
      </trkpt>
      <trkpt lat="42.8251" lon="0.26799">
        <ele>1528.392212</ele>
        <time>2021-08-07T19:01:29.529Z</time>
      </trkpt>
      <trkpt lat="42.82507" lon="0.26771">
        <ele>1530.918631</ele>
        <time>2021-08-07T19:01:44.404Z</time>
      </trkpt>
      <trkpt lat="42.82513" lon="0.26715">
        <ele>1535.795689</ele>
        <time>2021-08-07T19:02:11.298Z</time>
      </trkpt>
      <trkpt lat="42.82513" lon="0.26652">
        <ele>1539.430051</ele>
        <time>2021-08-07T19:02:36.215Z</time>
      </trkpt>
      <trkpt lat="42.82512" lon="0.2661">
        <ele>1541.413544</ele>
        <time>2021-08-07T19:02:52.874Z</time>
      </trkpt>
      <trkpt lat="42.82513" lon="0.26599">
        <ele>1541.95324</ele>
        <time>2021-08-07T19:02:55.848Z</time>
      </trkpt>
      <trkpt lat="42.8252" lon="0.26574">
        <ele>1543.178565</ele>
        <time>2021-08-07T19:03:04.579Z</time>
      </trkpt>
      <trkpt lat="42.82532" lon="0.26557">
        <ele>1544.286614</ele>
        <time>2021-08-07T19:03:12.728Z</time>
      </trkpt>
      <trkpt lat="42.82545" lon="0.26552">
        <ele>1545.157073</ele>
        <time>2021-08-07T19:03:18.000Z</time>
      </trkpt>
      <trkpt lat="42.8256" lon="0.2656">
        <ele>1546.198102</ele>
        <time>2021-08-07T19:03:26.427Z</time>
      </trkpt>
      <trkpt lat="42.82566" lon="0.26567">
        <ele>1546.677416</ele>
        <time>2021-08-07T19:03:28.699Z</time>
      </trkpt>
      <trkpt lat="42.82588" lon="0.26631">
        <ele>1549.5973</ele>
        <time>2021-08-07T19:03:50.251Z</time>
      </trkpt>
      <trkpt lat="42.82591" lon="0.26637">
        <ele>1549.839826</ele>
        <time>2021-08-07T19:03:54.159Z</time>
      </trkpt>
      <trkpt lat="42.826" lon="0.26638">
        <ele>1550.243848</ele>
        <time>2021-08-07T19:03:57.115Z</time>
      </trkpt>
      <trkpt lat="42.82602" lon="0.26627">
        <ele>1550.58084</ele>
        <time>2021-08-07T19:03:59.215Z</time>
      </trkpt>
      <trkpt lat="42.82607" lon="0.26547">
        <ele>1553.105478</ele>
        <time>2021-08-07T19:04:20.668Z</time>
      </trkpt>
      <trkpt lat="42.82604" lon="0.26466">
        <ele>1555.678694</ele>
        <time>2021-08-07T19:04:43.476Z</time>
      </trkpt>
      <trkpt lat="42.82608" lon="0.26466">
        <ele>1555.867831</ele>
        <time>2021-08-07T19:04:45.658Z</time>
      </trkpt>
      <trkpt lat="42.82617" lon="0.26479">
        <ele>1556.429104</ele>
        <time>2021-08-07T19:04:52.026Z</time>
      </trkpt>
      <trkpt lat="42.82629" lon="0.26537">
        <ele>1558.352976</ele>
        <time>2021-08-07T19:05:10.648Z</time>
      </trkpt>
      <trkpt lat="42.82647" lon="0.26579">
        <ele>1559.880264</ele>
        <time>2021-08-07T19:05:25.286Z</time>
      </trkpt>
      <trkpt lat="42.82732" lon="0.2687">
        <ele>1569.180532</ele>
        <time>2021-08-07T19:06:52.576Z</time>
      </trkpt>
      <trkpt lat="42.82785" lon="0.26963">
        <ele>1572.609292</ele>
        <time>2021-08-07T19:07:24.175Z</time>
      </trkpt>
      <trkpt lat="42.82825" lon="0.27058">
        <ele>1575.984802</ele>
        <time>2021-08-07T19:07:53.969Z</time>
      </trkpt>
      <trkpt lat="42.82837" lon="0.27137">
        <ele>1578.482393</ele>
        <time>2021-08-07T19:08:17.955Z</time>
      </trkpt>
      <trkpt lat="42.8287" lon="0.27232">
        <ele>1583.775247</ele>
        <time>2021-08-07T19:08:53.617Z</time>
      </trkpt>
      <trkpt lat="42.829" lon="0.27299">
        <ele>1587.926058</ele>
        <time>2021-08-07T19:09:24.209Z</time>
      </trkpt>
      <trkpt lat="42.82938" lon="0.27352">
        <ele>1591.769917</ele>
        <time>2021-08-07T19:09:54.599Z</time>
      </trkpt>
      <trkpt lat="42.8298" lon="0.27442">
        <ele>1598.297754</ele>
        <time>2021-08-07T19:10:39.783Z</time>
      </trkpt>
      <trkpt lat="42.8299" lon="0.27445">
        <ele>1599.089394</ele>
        <time>2021-08-07T19:10:45.154Z</time>
      </trkpt>
      <trkpt lat="42.82996" lon="0.27436">
        <ele>1599.885713</ele>
        <time>2021-08-07T19:10:50.741Z</time>
      </trkpt>
      <trkpt lat="42.82994" lon="0.27422">
        <ele>1600.759138</ele>
        <time>2021-08-07T19:10:56.543Z</time>
      </trkpt>
      <trkpt lat="42.82976" lon="0.27399">
        <ele>1602.761763</ele>
        <time>2021-08-07T19:11:10.075Z</time>
      </trkpt>
      <trkpt lat="42.82964" lon="0.2737">
        <ele>1604.813908</ele>
        <time>2021-08-07T19:11:23.352Z</time>
      </trkpt>
      <trkpt lat="42.8295" lon="0.27268">
        <ele>1610.712237</ele>
        <time>2021-08-07T19:12:02.805Z</time>
      </trkpt>
      <trkpt lat="42.82913" lon="0.27098">
        <ele>1620.711235</ele>
        <time>2021-08-07T19:13:10.565Z</time>
      </trkpt>
      <trkpt lat="42.82913" lon="0.2708">
        <ele>1621.855894</ele>
        <time>2021-08-07T19:13:17.431Z</time>
      </trkpt>
      <trkpt lat="42.82925" lon="0.27074">
        <ele>1623.067754</ele>
        <time>2021-08-07T19:13:25.089Z</time>
      </trkpt>
      <trkpt lat="42.82932" lon="0.27082">
        <ele>1623.909412</ele>
        <time>2021-08-07T19:13:30.339Z</time>
      </trkpt>
      <trkpt lat="42.82947" lon="0.27162">
        <ele>1629.385189</ele>
        <time>2021-08-07T19:14:05.769Z</time>
      </trkpt>
      <trkpt lat="42.8296" lon="0.27193">
        <ele>1631.738</ele>
        <time>2021-08-07T19:14:21.102Z</time>
      </trkpt>
      <trkpt lat="42.8301" lon="0.27279">
        <ele>1638.871098</ele>
        <time>2021-08-07T19:15:11.906Z</time>
      </trkpt>
      <trkpt lat="42.83025" lon="0.27353">
        <ele>1643.64632</ele>
        <time>2021-08-07T19:15:45.506Z</time>
      </trkpt>
      <trkpt lat="42.83035" lon="0.27363">
        <ele>1644.735008</ele>
        <time>2021-08-07T19:15:51.827Z</time>
      </trkpt>
      <trkpt lat="42.83044" lon="0.27355">
        <ele>1645.574393</ele>
        <time>2021-08-07T19:15:56.924Z</time>
      </trkpt>
      <trkpt lat="42.83044" lon="0.27347">
        <ele>1646.092118</ele>
        <time>2021-08-07T19:16:02.621Z</time>
      </trkpt>
      <trkpt lat="42.83041" lon="0.2734">
        <ele>1646.588754</ele>
        <time>2021-08-07T19:16:04.927Z</time>
      </trkpt>
      <trkpt lat="42.83034" lon="0.27321">
        <ele>1647.904069</ele>
        <time>2021-08-07T19:16:12.213Z</time>
      </trkpt>
      <trkpt lat="42.83021" lon="0.27242">
        <ele>1652.707032</ele>
        <time>2021-08-07T19:16:43.257Z</time>
      </trkpt>
      <trkpt lat="42.82986" lon="0.27155">
        <ele>1657.776894</ele>
        <time>2021-08-07T19:17:18.082Z</time>
      </trkpt>
      <trkpt lat="42.82987" lon="0.27074">
        <ele>1661.894506</ele>
        <time>2021-08-07T19:17:45.748Z</time>
      </trkpt>
      <trkpt lat="42.82976" lon="0.27006">
        <ele>1666.261115</ele>
        <time>2021-08-07T19:18:13.524Z</time>
      </trkpt>
      <trkpt lat="42.82982" lon="0.26996">
        <ele>1667.363895</ele>
        <time>2021-08-07T19:18:19.024Z</time>
      </trkpt>
      <trkpt lat="42.82995" lon="0.27002">
        <ele>1668.858542</ele>
        <time>2021-08-07T19:18:26.512Z</time>
      </trkpt>
      <trkpt lat="42.82998" lon="0.27049">
        <ele>1672.853339</ele>
        <time>2021-08-07T19:18:46.566Z</time>
      </trkpt>
      <trkpt lat="42.83027" lon="0.27141">
        <ele>1681.335103</ele>
        <time>2021-08-07T19:19:42.702Z</time>
      </trkpt>
      <trkpt lat="42.83049" lon="0.27193">
        <ele>1686.790852</ele>
        <time>2021-08-07T19:20:16.201Z</time>
      </trkpt>
      <trkpt lat="42.83068" lon="0.27212">
        <ele>1690.345977</ele>
        <time>2021-08-07T19:20:37.337Z</time>
      </trkpt>
      <trkpt lat="42.83084" lon="0.27209">
        <ele>1692.693294</ele>
        <time>2021-08-07T19:20:47.960Z</time>
      </trkpt>
      <trkpt lat="42.83089" lon="0.27203">
        <ele>1693.729122</ele>
        <time>2021-08-07T19:20:55.950Z</time>
      </trkpt>
      <trkpt lat="42.83091" lon="0.27196">
        <ele>1694.561724</ele>
        <time>2021-08-07T19:21:00.282Z</time>
      </trkpt>
      <trkpt lat="42.83079" lon="0.27092">
        <ele>1706.034267</ele>
        <time>2021-08-07T19:22:02.388Z</time>
      </trkpt>
      <trkpt lat="42.83056" lon="0.27055">
        <ele>1711.391069</ele>
        <time>2021-08-07T19:22:32.269Z</time>
      </trkpt>
      <trkpt lat="42.83046" lon="0.27027">
        <ele>1714.672866</ele>
        <time>2021-08-07T19:22:51.638Z</time>
      </trkpt>
      <trkpt lat="42.83042" lon="0.27004">
        <ele>1717.09068</ele>
        <time>2021-08-07T19:23:06.447Z</time>
      </trkpt>
      <trkpt lat="42.83044" lon="0.26965">
        <ele>1721.27542</ele>
        <time>2021-08-07T19:23:28.243Z</time>
      </trkpt>
      <trkpt lat="42.83055" lon="0.26946">
        <ele>1723.729265</ele>
        <time>2021-08-07T19:23:41.646Z</time>
      </trkpt>
      <trkpt lat="42.83071" lon="0.26947">
        <ele>1726.038519</ele>
        <time>2021-08-07T19:23:54.324Z</time>
      </trkpt>
      <trkpt lat="42.83123" lon="0.26992">
        <ele>1734.798954</ele>
        <time>2021-08-07T19:24:44.013Z</time>
      </trkpt>
      <trkpt lat="42.83133" lon="0.27044">
        <ele>1739.767013</ele>
        <time>2021-08-07T19:25:14.909Z</time>
      </trkpt>
      <trkpt lat="42.83155" lon="0.27114">
        <ele>1745.740706</ele>
        <time>2021-08-07T19:25:55.577Z</time>
      </trkpt>
      <trkpt lat="42.83161" lon="0.27119">
        <ele>1746.481413</ele>
        <time>2021-08-07T19:26:00.361Z</time>
      </trkpt>
      <trkpt lat="42.83167" lon="0.27117">
        <ele>1747.195874</ele>
        <time>2021-08-07T19:26:04.988Z</time>
      </trkpt>
      <trkpt lat="42.83171" lon="0.27109">
        <ele>1747.967693</ele>
        <time>2021-08-07T19:26:09.938Z</time>
      </trkpt>
      <trkpt lat="42.8316" lon="0.27077">
        <ele>1750.717095</ele>
        <time>2021-08-07T19:26:26.513Z</time>
      </trkpt>
      <trkpt lat="42.83159" lon="0.27056">
        <ele>1752.362751</ele>
        <time>2021-08-07T19:26:35.871Z</time>
      </trkpt>
      <trkpt lat="42.83168" lon="0.27021">
        <ele>1755.323141</ele>
        <time>2021-08-07T19:26:51.338Z</time>
      </trkpt>
      <trkpt lat="42.8317" lon="0.26998">
        <ele>1756.957057</ele>
        <time>2021-08-07T19:27:00.058Z</time>
      </trkpt>
      <trkpt lat="42.83153" lon="0.26941">
        <ele>1758.669228</ele>
        <time>2021-08-07T19:27:19.514Z</time>
      </trkpt>
      <trkpt lat="42.83134" lon="0.26912">
        <ele>1759.764514</ele>
        <time>2021-08-07T19:27:29.869Z</time>
      </trkpt>
      <trkpt lat="42.831" lon="0.26878">
        <ele>1761.380613</ele>
        <time>2021-08-07T19:27:43.297Z</time>
      </trkpt>
      <trkpt lat="42.83031" lon="0.26787">
        <ele>1765.681763</ele>
        <time>2021-08-07T19:28:13.497Z</time>
      </trkpt>
      <trkpt lat="42.83" lon="0.26755">
        <ele>1767.879976</ele>
        <time>2021-08-07T19:28:26.494Z</time>
      </trkpt>
      <trkpt lat="42.82998" lon="0.26737">
        <ele>1768.599832</ele>
        <time>2021-08-07T19:28:32.105Z</time>
      </trkpt>
      <trkpt lat="42.83008" lon="0.26569">
        <ele>1777.780843</ele>
        <time>2021-08-07T19:29:38.110Z</time>
      </trkpt>
      <trkpt lat="42.83014" lon="0.26561">
        <ele>1778.847314</ele>
        <time>2021-08-07T19:29:43.602Z</time>
      </trkpt>
      <trkpt lat="42.83024" lon="0.26569">
        <ele>1780.293151</ele>
        <time>2021-08-07T19:29:51.937Z</time>
      </trkpt>
      <trkpt lat="42.83019" lon="0.26611">
        <ele>1784.230559</ele>
        <time>2021-08-07T19:30:13.294Z</time>
      </trkpt>
      <trkpt lat="42.83037" lon="0.26676">
        <ele>1790.812028</ele>
        <time>2021-08-07T19:30:53.196Z</time>
      </trkpt>
      <trkpt lat="42.83062" lon="0.26725">
        <ele>1796.450697</ele>
        <time>2021-08-07T19:31:30.384Z</time>
      </trkpt>
      <trkpt lat="42.8307" lon="0.2673">
        <ele>1797.752336</ele>
        <time>2021-08-07T19:31:38.277Z</time>
      </trkpt>
      <trkpt lat="42.83076" lon="0.26727">
        <ele>1798.887124</ele>
        <time>2021-08-07T19:31:44.777Z</time>
      </trkpt>
      <trkpt lat="42.83078" lon="0.26719">
        <ele>1799.961347</ele>
        <time>2021-08-07T19:31:50.598Z</time>
      </trkpt>
      <trkpt lat="42.83069" lon="0.26697">
        <ele>1803.212065</ele>
        <time>2021-08-07T19:32:07.150Z</time>
      </trkpt>
      <trkpt lat="42.83067" lon="0.26679">
        <ele>1805.572464</ele>
        <time>2021-08-07T19:32:20.143Z</time>
      </trkpt>
      <trkpt lat="42.83074" lon="0.26591">
        <ele>1816.910688</ele>
        <time>2021-08-07T19:33:21.111Z</time>
      </trkpt>
      <trkpt lat="42.83092" lon="0.26532">
        <ele>1824.986243</ele>
        <time>2021-08-07T19:34:05.593Z</time>
      </trkpt>
      <trkpt lat="42.83124" lon="0.26461">
        <ele>1834.505198</ele>
        <time>2021-08-07T19:35:02.367Z</time>
      </trkpt>
      <trkpt lat="42.83127" lon="0.26439">
        <ele>1836.922888</ele>
        <time>2021-08-07T19:35:17.003Z</time>
      </trkpt>
      <trkpt lat="42.83126" lon="0.26403">
        <ele>1840.742741</ele>
        <time>2021-08-07T19:35:39.144Z</time>
      </trkpt>
      <trkpt lat="42.8311" lon="0.2637">
        <ele>1845.017819</ele>
        <time>2021-08-07T19:36:02.870Z</time>
      </trkpt>
      <trkpt lat="42.83109" lon="0.2636">
        <ele>1846.145135</ele>
        <time>2021-08-07T19:36:08.801Z</time>
      </trkpt>
      <trkpt lat="42.83119" lon="0.26353">
        <ele>1847.836335</ele>
        <time>2021-08-07T19:36:17.713Z</time>
      </trkpt>
      <trkpt lat="42.83134" lon="0.26358">
        <ele>1850.098365</ele>
        <time>2021-08-07T19:36:29.165Z</time>
      </trkpt>
      <trkpt lat="42.83158" lon="0.26387">
        <ele>1854.643638</ele>
        <time>2021-08-07T19:36:51.593Z</time>
      </trkpt>
      <trkpt lat="42.83173" lon="0.26422">
        <ele>1856.871065</ele>
        <time>2021-08-07T19:37:10.213Z</time>
      </trkpt>
      <trkpt lat="42.83187" lon="0.26492">
        <ele>1860.933066</ele>
        <time>2021-08-07T19:37:39.333Z</time>
      </trkpt>
      <trkpt lat="42.83196" lon="0.26582">
        <ele>1865.993761</ele>
        <time>2021-08-07T19:38:09.971Z</time>
      </trkpt>
      <trkpt lat="42.8323" lon="0.26617">
        <ele>1869.089427</ele>
        <time>2021-08-07T19:38:28.320Z</time>
      </trkpt>
      <trkpt lat="42.8325" lon="0.26654">
        <ele>1871.354017</ele>
        <time>2021-08-07T19:38:43.304Z</time>
      </trkpt>
      <trkpt lat="42.83278" lon="0.26758">
        <ele>1876.773695</ele>
        <time>2021-08-07T19:39:20.638Z</time>
      </trkpt>
      <trkpt lat="42.83319" lon="0.26852">
        <ele>1883.535275</ele>
        <time>2021-08-07T19:40:04.597Z</time>
      </trkpt>
      <trkpt lat="42.83329" lon="0.26861">
        <ele>1884.962141</ele>
        <time>2021-08-07T19:40:12.426Z</time>
      </trkpt>
      <trkpt lat="42.83339" lon="0.26857">
        <ele>1886.195734</ele>
        <time>2021-08-07T19:40:19.320Z</time>
      </trkpt>
      <trkpt lat="42.83343" lon="0.26846">
        <ele>1887.203511</ele>
        <time>2021-08-07T19:40:25.174Z</time>
      </trkpt>
      <trkpt lat="42.83336" lon="0.26762">
        <ele>1894.465537</ele>
        <time>2021-08-07T19:41:10.148Z</time>
      </trkpt>
      <trkpt lat="42.83349" lon="0.26707">
        <ele>1899.442532</ele>
        <time>2021-08-07T19:41:42.584Z</time>
      </trkpt>
      <trkpt lat="42.83327" lon="0.26637">
        <ele>1907.005586</ele>
        <time>2021-08-07T19:42:26.540Z</time>
      </trkpt>
      <trkpt lat="42.83323" lon="0.26594">
        <ele>1911.506611</ele>
        <time>2021-08-07T19:42:52.043Z</time>
      </trkpt>
      <trkpt lat="42.83342" lon="0.26494">
        <ele>1922.129857</ele>
        <time>2021-08-07T19:43:52.722Z</time>
      </trkpt>
      <trkpt lat="42.83334" lon="0.26441">
        <ele>1927.746048</ele>
        <time>2021-08-07T19:44:23.894Z</time>
      </trkpt>
      <trkpt lat="42.83333" lon="0.26397">
        <ele>1931.989345</ele>
        <time>2021-08-07T19:44:47.733Z</time>
      </trkpt>
      <trkpt lat="42.83346" lon="0.26286">
        <ele>1942.88983</ele>
        <time>2021-08-07T19:45:55.781Z</time>
      </trkpt>
      <trkpt lat="42.83366" lon="0.262">
        <ele>1951.138586</ele>
        <time>2021-08-07T19:46:40.497Z</time>
      </trkpt>
      <trkpt lat="42.83367" lon="0.2619">
        <ele>1951.664765</ele>
        <time>2021-08-07T19:46:48.228Z</time>
      </trkpt>
      <trkpt lat="42.83367" lon="0.26168">
        <ele>1952.858818</ele>
        <time>2021-08-07T19:46:57.302Z</time>
      </trkpt>
      <trkpt lat="42.8335" lon="0.26">
        <ele>1961.779051</ele>
        <time>2021-08-07T19:48:01.066Z</time>
      </trkpt>
      <trkpt lat="42.83332" lon="0.25922">
        <ele>1963.977971</ele>
        <time>2021-08-07T19:48:18.936Z</time>
      </trkpt>
      <trkpt lat="42.83312" lon="0.25795">
        <ele>1965.359396</ele>
        <time>2021-08-07T19:48:42.715Z</time>
      </trkpt>
      <trkpt lat="42.83303" lon="0.25767">
        <ele>1965.686843</ele>
        <time>2021-08-07T19:48:48.539Z</time>
      </trkpt>
      <trkpt lat="42.83277" lon="0.25717">
        <ele>1966.59385</ele>
        <time>2021-08-07T19:49:00.086Z</time>
      </trkpt>
      <trkpt lat="42.83254" lon="0.25683">
        <ele>1967.543721</ele>
        <time>2021-08-07T19:49:09.654Z</time>
      </trkpt>
      <trkpt lat="42.83249" lon="0.25647">
        <ele>1968.296298</ele>
        <time>2021-08-07T19:49:17.985Z</time>
      </trkpt>
      <trkpt lat="42.83262" lon="0.2558">
        <ele>1969.720775</ele>
        <time>2021-08-07T19:49:35.752Z</time>
      </trkpt>
      <trkpt lat="42.83261" lon="0.2552">
        <ele>1970.944461</ele>
        <time>2021-08-07T19:49:52.785Z</time>
      </trkpt>
      <trkpt lat="42.8327" lon="0.25446">
        <ele>1974.274302</ele>
        <time>2021-08-07T19:50:15.980Z</time>
      </trkpt>
      <trkpt lat="42.83273" lon="0.25386">
        <ele>1977.045918</ele>
        <time>2021-08-07T19:50:36.008Z</time>
      </trkpt>
      <trkpt lat="42.83284" lon="0.25325">
        <ele>1979.991303</ele>
        <time>2021-08-07T19:50:58.876Z</time>
      </trkpt>
      <trkpt lat="42.83283" lon="0.25292">
        <ele>1981.479849</ele>
        <time>2021-08-07T19:51:10.965Z</time>
      </trkpt>
      <trkpt lat="42.83294" lon="0.25258">
        <ele>1983.818752</ele>
        <time>2021-08-07T19:51:25.572Z</time>
      </trkpt>
      <trkpt lat="42.83329" lon="0.25192">
        <ele>1990.270503</ele>
        <time>2021-08-07T19:52:03.588Z</time>
      </trkpt>
      <trkpt lat="42.83366" lon="0.25071">
        <ele>2000.78022</ele>
        <time>2021-08-07T19:53:12.292Z</time>
      </trkpt>
      <trkpt lat="42.83377" lon="0.2505">
        <ele>2002.729563</ele>
        <time>2021-08-07T19:53:24.645Z</time>
      </trkpt>
      <trkpt lat="42.83385" lon="0.25043">
        <ele>2003.657465</ele>
        <time>2021-08-07T19:53:32.574Z</time>
      </trkpt>
      <trkpt lat="42.83403" lon="0.25031">
        <ele>2005.465629</ele>
        <time>2021-08-07T19:53:46.254Z</time>
      </trkpt>
      <trkpt lat="42.83441" lon="0.24997">
        <ele>2009.750174</ele>
        <time>2021-08-07T19:54:16.741Z</time>
      </trkpt>
      <trkpt lat="42.83453" lon="0.24968">
        <ele>2012.000977</ele>
        <time>2021-08-07T19:54:31.703Z</time>
      </trkpt>
      <trkpt lat="42.8348" lon="0.24809">
        <ele>2021.461912</ele>
        <time>2021-08-07T19:55:31.638Z</time>
      </trkpt>
      <trkpt lat="42.83479" lon="0.24791">
        <ele>2022.163244</ele>
        <time>2021-08-07T19:55:36.879Z</time>
      </trkpt>
      <trkpt lat="42.83478" lon="0.24779">
        <ele>2022.678262</ele>
        <time>2021-08-07T19:55:38.890Z</time>
      </trkpt>
      <trkpt lat="42.83472" lon="0.24767">
        <ele>2023.260428</ele>
        <time>2021-08-07T19:55:43.175Z</time>
      </trkpt>
      <trkpt lat="42.83442" lon="0.24752">
        <ele>2024.993615</ele>
        <time>2021-08-07T19:55:54.154Z</time>
      </trkpt>
      <trkpt lat="42.83432" lon="0.24731">
        <ele>2026.032324</ele>
        <time>2021-08-07T19:56:02.494Z</time>
      </trkpt>
      <trkpt lat="42.83461" lon="0.24571">
        <ele>2036.071346</ele>
        <time>2021-08-07T19:57:00.877Z</time>
      </trkpt>
      <trkpt lat="42.83469" lon="0.24434">
        <ele>2046.438556</ele>
        <time>2021-08-07T19:58:12.159Z</time>
      </trkpt>
      <trkpt lat="42.83513" lon="0.24225">
        <ele>2069.085171</ele>
        <time>2021-08-07T20:00:23.864Z</time>
      </trkpt>
      <trkpt lat="42.83512" lon="0.24198">
        <ele>2071.932856</ele>
        <time>2021-08-07T20:00:39.446Z</time>
      </trkpt>
      <trkpt lat="42.83502" lon="0.24156">
        <ele>2076.127086</ele>
        <time>2021-08-07T20:01:04.258Z</time>
      </trkpt>
      <trkpt lat="42.83479" lon="0.24111">
        <ele>2081.250629</ele>
        <time>2021-08-07T20:01:34.906Z</time>
      </trkpt>
      <trkpt lat="42.83486" lon="0.241">
        <ele>2082.583897</ele>
        <time>2021-08-07T20:01:42.860Z</time>
      </trkpt>
      <trkpt lat="42.83495" lon="0.24101">
        <ele>2083.803048</ele>
        <time>2021-08-07T20:01:49.839Z</time>
      </trkpt>
      <trkpt lat="42.83519" lon="0.24133">
        <ele>2087.954789</ele>
        <time>2021-08-07T20:02:13.461Z</time>
      </trkpt>
      <trkpt lat="42.83533" lon="0.24181">
        <ele>2092.764318</ele>
        <time>2021-08-07T20:02:39.687Z</time>
      </trkpt>
      <trkpt lat="42.83543" lon="0.24186">
        <ele>2094.072486</ele>
        <time>2021-08-07T20:02:46.570Z</time>
      </trkpt>
      <trkpt lat="42.83549" lon="0.24176">
        <ele>2095.238086</ele>
        <time>2021-08-07T20:02:52.828Z</time>
      </trkpt>
      <trkpt lat="42.83537" lon="0.24107">
        <ele>2102.20485</ele>
        <time>2021-08-07T20:03:28.463Z</time>
      </trkpt>
      <trkpt lat="42.8352" lon="0.24055">
        <ele>2107.804424</ele>
        <time>2021-08-07T20:03:59.743Z</time>
      </trkpt>
      <trkpt lat="42.83465" lon="0.23958">
        <ele>2119.782787</ele>
        <time>2021-08-07T20:05:11.015Z</time>
      </trkpt>
      <trkpt lat="42.83451" lon="0.23936">
        <ele>2122.789981</ele>
        <time>2021-08-07T20:05:29.448Z</time>
      </trkpt>
      <trkpt lat="42.83432" lon="0.23914">
        <ele>2126.272024</ele>
        <time>2021-08-07T20:05:50.437Z</time>
      </trkpt>
      <trkpt lat="42.83399" lon="0.23891">
        <ele>2131.425902</ele>
        <time>2021-08-07T20:06:20.278Z</time>
      </trkpt>
      <trkpt lat="42.83375" lon="0.23888">
        <ele>2134.819032</ele>
        <time>2021-08-07T20:06:38.857Z</time>
      </trkpt>
      <trkpt lat="42.83364" lon="0.2389">
        <ele>2136.445383</ele>
        <time>2021-08-07T20:06:49.147Z</time>
      </trkpt>
      <trkpt lat="42.8335" lon="0.23894">
        <ele>2138.452026</ele>
        <time>2021-08-07T20:06:59.693Z</time>
      </trkpt>
      <trkpt lat="42.83332" lon="0.23899">
        <ele>2140.953149</ele>
        <time>2021-08-07T20:07:14.754Z</time>
      </trkpt>
      <trkpt lat="42.83249" lon="0.23929">
        <ele>2150.783274</ele>
        <time>2021-08-07T20:08:14.970Z</time>
      </trkpt>
      <trkpt lat="42.83169" lon="0.23969">
        <ele>2159.322661</ele>
        <time>2021-08-07T20:09:05.461Z</time>
      </trkpt>
      <trkpt lat="42.83117" lon="0.24032">
        <ele>2165.793993</ele>
        <time>2021-08-07T20:09:43.388Z</time>
      </trkpt>
      <trkpt lat="42.8304" lon="0.24113">
        <ele>2174.141745</ele>
        <time>2021-08-07T20:10:38.392Z</time>
      </trkpt>
      <trkpt lat="42.83034" lon="0.24118">
        <ele>2174.801359</ele>
        <time>2021-08-07T20:10:42.609Z</time>
      </trkpt>
      <trkpt lat="42.83028" lon="0.24111">
        <ele>2175.44875</ele>
        <time>2021-08-07T20:10:47.056Z</time>
      </trkpt>
      <trkpt lat="42.83029" lon="0.24102">
        <ele>2176.061324</ele>
        <time>2021-08-07T20:10:51.205Z</time>
      </trkpt>
      <trkpt lat="42.83059" lon="0.24056">
        <ele>2179.745346</ele>
        <time>2021-08-07T20:11:17.127Z</time>
      </trkpt>
      <trkpt lat="42.83082" lon="0.23995">
        <ele>2183.532196</ele>
        <time>2021-08-07T20:11:46.575Z</time>
      </trkpt>
      <trkpt lat="42.832" lon="0.23832">
        <ele>2194.877218</ele>
        <time>2021-08-07T20:13:08.475Z</time>
      </trkpt>
      <trkpt lat="42.83232" lon="0.23765">
        <ele>2198.081531</ele>
        <time>2021-08-07T20:13:32.085Z</time>
      </trkpt>
      <trkpt lat="42.83252" lon="0.23742">
        <ele>2199.499385</ele>
        <time>2021-08-07T20:13:42.561Z</time>
      </trkpt>
      <trkpt lat="42.8328" lon="0.23728">
        <ele>2201.11641</ele>
        <time>2021-08-07T20:13:55.098Z</time>
      </trkpt>
      <trkpt lat="42.83291" lon="0.23722">
        <ele>2201.757842</ele>
        <time>2021-08-07T20:14:01.496Z</time>
      </trkpt>
      <trkpt lat="42.83324" lon="0.23696">
        <ele>2201.780911</ele>
        <time>2021-08-07T20:14:18.650Z</time>
      </trkpt>
      <trkpt lat="42.83326" lon="0.23681">
        <ele>2201.780911</ele>
        <time>2021-08-07T20:14:22.842Z</time>
      </trkpt>
      <trkpt lat="42.8332" lon="0.23667">
        <ele>2201.780911</ele>
        <time>2021-08-07T20:14:27.478Z</time>
      </trkpt>
      <trkpt lat="42.83311" lon="0.2365">
        <ele>2201.780911</ele>
        <time>2021-08-07T20:14:34.955Z</time>
      </trkpt>
      <trkpt lat="42.83279" lon="0.23599">
        <ele>2201.780911</ele>
        <time>2021-08-07T20:15:02.308Z</time>
      </trkpt>
      <trkpt lat="42.83267" lon="0.23579">
        <ele>2201.780911</ele>
        <time>2021-08-07T20:15:13.874Z</time>
      </trkpt>
      <trkpt lat="42.83254" lon="0.23558">
        <ele>2201.780911</ele>
        <time>2021-08-07T20:15:25.040Z</time>
      </trkpt>
    </trkseg>
  </trk>
</gpx>